Home > Products > Valid Products > OSO

000
SXUS55 KMSO 010853
OSOMSO
MONTANA AWOS SUMMARY
NATIONAL WEATHER SERVICE MISSOULA MT
252 AM MDT SAT NOV 1 2014

Montana AWOS Reports

LAUREL      |K6S8 010835Z AUTO 25SM 08/M03 A2975 RMK AO1 T00781032
ROUNDUP     |KRPX 010835Z AUTO 20008KT 40SM 07/M02 A2968 RMK AO1 T00721016






000
SXUS55 KMSO 010823
OSOMSO
MONTANA AWOS SUMMARY
NATIONAL WEATHER SERVICE MISSOULA MT
223 AM MDT SAT NOV 1 2014

Montana AWOS Reports

LAUREL      |K6S8 010815Z AUTO 40SM 08/M03 A2975 RMK AO1 T00781032
ROUNDUP     |KRPX 010815Z AUTO 20007KT 40SM 07/M01 A2968 RMK AO1 T00721010






000
SXUS55 KMSO 010813
OSOMSO
MONTANA AWOS SUMMARY
NATIONAL WEATHER SERVICE MISSOULA MT
213 AM MDT SAT NOV 1 2014

Montana AWOS Reports

MALTA       |KM75 010755Z AUTO 00000KT 40SM 02/M02 A2970 RMK AO1 T00221016






000
SXUS55 KMSO 010803
OSOMSO
MONTANA AWOS SUMMARY
NATIONAL WEATHER SERVICE MISSOULA MT
203 AM MDT SAT NOV 1 2014

Montana AWOS Reports

LAUREL      |K6S8 010755Z AUTO 40SM 06/M04 A2975 RMK AO1 T00561038
ROUNDUP     |KRPX 010755Z AUTO 21008KT 40SM 07/M01 A2968 RMK AO1 T00721010
PLAINS      |KS34 010755Z AUTO 00000KT 1/2SM 04/02 A2979 RMK AO1 T00390017
TWIN BRIDGES|K7S1 010755Z AUTO 00000KT 40SM 07/M04 A2978 RMK AO1 T00671038






000
SXUS55 KMSO 010743
OSOMSO
MONTANA AWOS SUMMARY
NATIONAL WEATHER SERVICE MISSOULA MT
143 AM MDT SAT NOV 1 2014

Montana AWOS Reports

LAUREL      |K6S8 010735Z AUTO 00000KT 40SM 08/M03 A2976 RMK AO1 T00781032
ROUNDUP     |KRPX 010735Z AUTO 19007KT 40SM 07/M02 A2968 RMK AO1 T00671016






000
SXUS55 KMSO 010723
OSOMSO
MONTANA AWOS SUMMARY
NATIONAL WEATHER SERVICE MISSOULA MT
123 AM MDT SAT NOV 1 2014

Montana AWOS Reports

LAUREL      |K6S8 010715Z AUTO 00000KT 40SM 08/M03 A2976 RMK AO1 T00781027
ROUNDUP     |KRPX 010715Z AUTO 20006KT 40SM 07/M01 A2968 RMK AO1 T00671010






000
SXUS55 KMSO 010704
OSOMSO
MONTANA AWOS SUMMARY
NATIONAL WEATHER SERVICE MISSOULA MT
103 AM MDT SAT NOV 1 2014

Montana AWOS Reports

ROUNDUP     |KRPX 010655Z AUTO 21005KT 40SM 09/M01 A2968 RMK AO1 T00891010
SCOBEY      |K9S2 010655Z AUTO 00000KT 40SM 02/M05 A2976 RMK AO1 T00171049
PLAINS      |KS34 010655Z AUTO 00000KT 1/4SM 03/01 A2980 RMK AO1 T00330011
TWIN BRIDGES|K7S1 010655Z AUTO 00000KT 40SM 06/M04 A2979 RMK AO1 T00611038
MALTA       |KM75 010655Z AUTO 00000KT 40SM 04/M01 A2970 RMK AO1 T00391005






000
SXUS55 KMSO 010653
OSOMSO
MONTANA AWOS SUMMARY
NATIONAL WEATHER SERVICE MISSOULA MT
1253 AM MDT SAT NOV 1 2014

Montana AWOS Reports

LAUREL      |K6S8 010635Z AUTO 00000KT 40SM 09/M02 A2977 RMK AO1 T00941021






000
SXUS55 KMSO 010643
OSOMSO
MONTANA AWOS SUMMARY
NATIONAL WEATHER SERVICE MISSOULA MT
1243 AM MDT SAT NOV 1 2014

Montana AWOS Reports

ROUNDUP     |KRPX 010635Z AUTO 21004KT 40SM 08/M02 A2969 RMK AO1 T00831016






000
SXUS55 KMSO 010623
OSOMSO
MONTANA AWOS SUMMARY
NATIONAL WEATHER SERVICE MISSOULA MT
1223 AM MDT SAT NOV 1 2014

Montana AWOS Reports

LAUREL      |K6S8 010615Z AUTO 00000KT 40SM 09/M02 A2977 RMK AO1 T00941021
ROUNDUP     |KRPX 010615Z AUTO 00000KT 40SM 08/M02 A2969 RMK AO1 T00831016






000
SXUS55 KMSO 010603
OSOMSO
MONTANA AWOS SUMMARY
NATIONAL WEATHER SERVICE MISSOULA MT
1203 AM MDT SAT NOV 1 2014

Montana AWOS Reports

LAUREL      |K6S8 010555Z AUTO 00000KT 40SM 08/M02 A2977 RMK AO1 T00831021
ROUNDUP     |KRPX 010555Z AUTO 00000KT 40SM 08/M02 A2969 RMK AO1 T00831016
SCOBEY      |K9S2 010555Z AUTO 13011G16KT 40SM 03/M04 A2976 RMK AO1 T00281043
TWIN BRIDGES|K7S1 010555Z AUTO 00000KT 40SM 08/M04 A2980 RMK AO1 T00781043
MALTA       |KM75 010555Z AUTO 00000KT 40SM 06/00 A2970 RMK AO1 T00560000






000
SXUS55 KMSO 010553
OSOMSO
MONTANA AWOS SUMMARY
NATIONAL WEATHER SERVICE MISSOULA MT
1153 PM MDT FRI OCT 31 2014

Montana AWOS Reports

ROUNDUP     |KRPX 010535Z AUTO 18004KT 40SM 09/M02 A2969 RMK AO1 T00941016






000
SXUS55 KMSO 010543
OSOMSO
MONTANA AWOS SUMMARY
NATIONAL WEATHER SERVICE MISSOULA MT
1142 PM MDT FRI OCT 31 2014

Montana AWOS Reports

LAUREL      |K6S8 010535Z AUTO 00000KT 40SM 08/M02 A2978 RMK AO1 T00781021






000
SXUS55 KMSO 010523
OSOMSO
MONTANA AWOS SUMMARY
NATIONAL WEATHER SERVICE MISSOULA MT
1123 PM MDT FRI OCT 31 2014

Montana AWOS Reports

LAUREL      |K6S8 010515Z AUTO 00000KT 25SM 08/M03 A2978 RMK AO1 T00831027
ROUNDUP     |KRPX 010515Z AUTO 17004KT 40SM 10/M01 A2970 RMK AO1 T01001010






000
SXUS55 KMSO 010503
OSOMSO
MONTANA AWOS SUMMARY
NATIONAL WEATHER SERVICE MISSOULA MT
1103 PM MDT FRI OCT 31 2014

Montana AWOS Reports

LAUREL      |K6S8 010455Z AUTO 00000KT 40SM 09/M02 A2978 RMK AO1 T00941021
PLAINS      |KS34 010455Z AUTO 00000KT 3/4SM 04/02 A2980 RMK AO1 T00390017
TWIN BRIDGES|K7S1 010455Z AUTO 00000KT 40SM 11/M05 A2981 RMK AO1 T01061049
ROUNDUP     |KRPX 010455Z AUTO 16005KT 40SM 09/M02 A2970 RMK AO1 T00891016
SCOBEY      |K9S2 010455Z AUTO 14010G15KT 40SM 03/M03 A2977 RMK AO1 T00331032
MALTA       |KM75 010455Z AUTO 00000KT 40SM 06/01 A2971 RMK AO1 T00610006






000
SXUS55 KMSO 010443
OSOMSO
MONTANA AWOS SUMMARY
NATIONAL WEATHER SERVICE MISSOULA MT
1043 PM MDT FRI OCT 31 2014

Montana AWOS Reports

LAUREL      |K6S8 010435Z AUTO 00000KT 40SM 09/M03 A2979 RMK AO1 T00891027
ROUNDUP     |KRPX 010435Z AUTO 00000KT 40SM 09/M01 A2971 RMK AO1 T00941010






000
SXUS55 KMSO 010423
OSOMSO
MONTANA AWOS SUMMARY
NATIONAL WEATHER SERVICE MISSOULA MT
1023 PM MDT FRI OCT 31 2014

Montana AWOS Reports

LAUREL      |K6S8 010415Z AUTO 00000KT 40SM 10/M02 A2979 RMK AO1 T01001021
ROUNDUP     |KRPX 010415Z AUTO 00000KT 40SM 10/M01 A2971 RMK AO1 T01001010






000
SXUS55 KMSO 010404
OSOMSO
MONTANA AWOS SUMMARY
NATIONAL WEATHER SERVICE MISSOULA MT
1003 PM MDT FRI OCT 31 2014

Montana AWOS Reports

LAUREL      |K6S8 010355Z AUTO 00000KT 40SM 09/M02 A2979 RMK AO1 T00941021
ROUNDUP     |KRPX 010355Z AUTO 00000KT 40SM 11/M02 A2971 RMK AO1 T01061016
SCOBEY      |K9S2 010355Z AUTO 14004KT 40SM 04/M03 A2980 RMK AO1 T00391032
MALTA       |KM75 010355Z AUTO 00000KT 40SM 07/01 A2971 RMK AO1 T00720011
PLAINS      |KS34 010355Z AUTO 00000KT 5SM 04/02 A2981 RMK AO1 T00440022
TWIN BRIDGES|K7S1 010355Z AUTO 08005KT 40SM 12/M04 A2982 RMK AO1 T01171043






000
SXUS55 KMSO 010404
OSOMSO
MONTANA AWOS SUMMARY
NATIONAL WEATHER SERVICE MISSOULA MT
1003 PM MDT FRI OCT 31 2014

Montana AWOS Reports

LAUREL      |K6S8 010355Z AUTO 00000KT 40SM 09/M02 A2979 RMK AO1 T00941021
ROUNDUP     |KRPX 010355Z AUTO 00000KT 40SM 11/M02 A2971 RMK AO1 T01061016
SCOBEY      |K9S2 010355Z AUTO 14004KT 40SM 04/M03 A2980 RMK AO1 T00391032
MALTA       |KM75 010355Z AUTO 00000KT 40SM 07/01 A2971 RMK AO1 T00720011
PLAINS      |KS34 010355Z AUTO 00000KT 5SM 04/02 A2981 RMK AO1 T00440022
TWIN BRIDGES|K7S1 010355Z AUTO 08005KT 40SM 12/M04 A2982 RMK AO1 T01171043






000
SXUS55 KMSO 010343
OSOMSO
MONTANA AWOS SUMMARY
NATIONAL WEATHER SERVICE MISSOULA MT
943 PM MDT FRI OCT 31 2014

Montana AWOS Reports

LAUREL      |K6S8 010335Z AUTO 00000KT 40SM 09/M03 A2979 RMK AO1 T00941027
ROUNDUP     |KRPX 010335Z AUTO 00000KT 40SM 11/M01 A2971 RMK AO1 T01061010






000
SXUS55 KMSO 010343
OSOMSO
MONTANA AWOS SUMMARY
NATIONAL WEATHER SERVICE MISSOULA MT
943 PM MDT FRI OCT 31 2014

Montana AWOS Reports

LAUREL      |K6S8 010335Z AUTO 00000KT 40SM 09/M03 A2979 RMK AO1 T00941027
ROUNDUP     |KRPX 010335Z AUTO 00000KT 40SM 11/M01 A2971 RMK AO1 T01061010






000
SXUS55 KMSO 010323
OSOMSO
MONTANA AWOS SUMMARY
NATIONAL WEATHER SERVICE MISSOULA MT
923 PM MDT FRI OCT 31 2014

Montana AWOS Reports

LAUREL      |K6S8 010315Z AUTO 00000KT 40SM 10/M02 A2979 RMK AO1 T01001016
ROUNDUP     |KRPX 010315Z AUTO 00000KT 40SM 11/M01 A2972 RMK AO1 T01061010






000
SXUS55 KMSO 010323
OSOMSO
MONTANA AWOS SUMMARY
NATIONAL WEATHER SERVICE MISSOULA MT
923 PM MDT FRI OCT 31 2014

Montana AWOS Reports

LAUREL      |K6S8 010315Z AUTO 00000KT 40SM 10/M02 A2979 RMK AO1 T01001016
ROUNDUP     |KRPX 010315Z AUTO 00000KT 40SM 11/M01 A2972 RMK AO1 T01061010






000
SXUS55 KMSO 010303
OSOMSO
MONTANA AWOS SUMMARY
NATIONAL WEATHER SERVICE MISSOULA MT
903 PM MDT FRI OCT 31 2014

Montana AWOS Reports

LAUREL      |K6S8 010255Z AUTO 00000KT 3/4SM 11/M02 A2979 RMK AO1 T01061021
SCOBEY      |K9S2 010255Z AUTO 13011G19KT 40SM 05/M04 A2981 RMK AO1 T00501038
PLAINS      |KS34 010255Z AUTO 00000KT 10SM 05/02 A2980 RMK AO1 T00500022
TWIN BRIDGES|K7S1 010255Z AUTO 06004KT 40SM 12/M04 A2982 RMK AO1 T01171043
ROUNDUP     |KRPX 010255Z AUTO 00000KT 40SM 10/M02 A2972 RMK AO1 T01001016
MALTA       |KM75 010255Z AUTO 00000KT 40SM 07/01 A2972 RMK AO1 T00670011






000
SXUS55 KMSO 010253
OSOMSO
MONTANA AWOS SUMMARY
NATIONAL WEATHER SERVICE MISSOULA MT
852 PM MDT FRI OCT 31 2014

Montana AWOS Reports

ROUNDUP     |KRPX 010235Z AUTO 00000KT 40SM 11/M02 A2972 RMK AO1 T01061021






000
SXUS55 KMSO 010243
OSOMSO
MONTANA AWOS SUMMARY
NATIONAL WEATHER SERVICE MISSOULA MT
843 PM MDT FRI OCT 31 2014

Montana AWOS Reports

LAUREL      |K6S8 010235Z AUTO 00000KT 1 1/2SM 11/M02 A2979 RMK AO1 T01061016






000
SXUS55 KMSO 010223
OSOMSO
MONTANA AWOS SUMMARY
NATIONAL WEATHER SERVICE MISSOULA MT
823 PM MDT FRI OCT 31 2014

Montana AWOS Reports

LAUREL      |K6S8 010215Z AUTO 00000KT 3 1/2SM 10/M02 A2979 RMK AO1 T01001016
ROUNDUP     |KRPX 010215Z AUTO 00000KT 40SM 11/M02 A2972 RMK AO1 T01061016






000
SXUS55 KMSO 010203
OSOMSO
MONTANA AWOS SUMMARY
NATIONAL WEATHER SERVICE MISSOULA MT
803 PM MDT FRI OCT 31 2014

Montana AWOS Reports

LAUREL      |K6S8 010155Z AUTO 00000KT 25SM 11/M02 A2980 RMK AO1 T01061021
SCOBEY      |K9S2 010155Z AUTO 12018G27KT 40SM 06/M03 A2980 RMK AO1 T00611027
TWIN BRIDGES|K7S1 010155Z AUTO 00000KT 25SM 14/M04 A2982 RMK AO1 T01441043
ROUNDUP     |KRPX 010155Z AUTO 00000KT 40SM 12/M02 A2972 RMK AO1 T01171021
MALTA       |KM75 010155Z AUTO 00000KT 40SM 07/01 A2973 RMK AO1 T00670006






000
SXUS55 KMSO 010144
OSOMSO
MONTANA AWOS SUMMARY
NATIONAL WEATHER SERVICE MISSOULA MT
743 PM MDT FRI OCT 31 2014

Montana AWOS Reports

LAUREL      |K6S8 010135Z AUTO 00000KT 25SM 11/M02 A2980 RMK AO1 T01061021
ROUNDUP     |KRPX 010135Z AUTO 00000KT 40SM 11/M02 A2972 RMK AO1 T01111021






000
SXUS55 KMSO 010144
OSOMSO
MONTANA AWOS SUMMARY
NATIONAL WEATHER SERVICE MISSOULA MT
743 PM MDT FRI OCT 31 2014

Montana AWOS Reports

LAUREL      |K6S8 010135Z AUTO 00000KT 25SM 11/M02 A2980 RMK AO1 T01061021
ROUNDUP     |KRPX 010135Z AUTO 00000KT 40SM 11/M02 A2972 RMK AO1 T01111021






000
SXUS55 KMSO 010123
OSOMSO
MONTANA AWOS SUMMARY
NATIONAL WEATHER SERVICE MISSOULA MT
723 PM MDT FRI OCT 31 2014

Montana AWOS Reports

LAUREL      |K6S8 010055Z AUTO 00000KT 40SM 11/M02 A2980 RMK AO1 T01111021
ROUNDUP     |KRPX 010055Z AUTO 00000KT 40SM 13/M02 A2972 RMK AO1 T01331021
MALTA       |KM75 010055Z AUTO 00000KT 40SM 07/01 A2973 RMK AO1 T00720006
PLAINS      |KS34 010055Z AUTO 00000KT 25SM 09/05 A2980 RMK AO1 T00890050
ROUNDUP     |KRPX 010055Z AUTO 00000KT 40SM 13/M02 A2972 RMK AO1 T01331021
TWIN BRIDGES|K7S1 010055Z AUTO 08008KT 40SM 17/M04 A2981 RMK AO1 T01721043
LAUREL      |K6S8 010115Z AUTO 00000KT 25SM 11/M03 A2980 RMK AO1 T01061027
ROUNDUP     |KRPX 010115Z AUTO 00000KT 40SM 13/M02 A2972 RMK AO1 T01281021






000
SXUS55 KMSO 010043
OSOMSO
MONTANA AWOS SUMMARY
NATIONAL WEATHER SERVICE MISSOULA MT
643 PM MDT FRI OCT 31 2014

Montana AWOS Reports

LAUREL      |K6S8 010035Z AUTO 00000KT 25SM 12/M02 A2981 RMK AO1 T01171021
ROUNDUP     |KRPX 010035Z AUTO 16004KT 40SM 13/M03 A2973 RMK AO1 T01331027






000
SXUS55 KMSO 312344
OSOMSO
MONTANA AWOS SUMMARY
NATIONAL WEATHER SERVICE MISSOULA MT
543 PM MDT FRI OCT 31 2014

Montana AWOS Reports

LAUREL      |K6S8 312335Z AUTO 00000KT 25SM 15/M01 A2981 RMK AO1 T01501010
ROUNDUP     |KRPX 312335Z AUTO 00000KT 40SM 14/M02 A2973 RMK AO1 T01441016






000
SXUS55 KMSO 312333
OSOMSO
MONTANA AWOS SUMMARY
NATIONAL WEATHER SERVICE MISSOULA MT
533 PM MDT FRI OCT 31 2014

Montana AWOS Reports

PLAINS      |KS34 312255Z AUTO 00000KT 25SM 13/07 A2978 RMK AO1 T01280067






000
SXUS55 KMSO 312323
OSOMSO
MONTANA AWOS SUMMARY
NATIONAL WEATHER SERVICE MISSOULA MT
523 PM MDT FRI OCT 31 2014

Montana AWOS Reports

LAUREL      |K6S8 312315Z AUTO 00000KT 25SM 16/M01 A2982 RMK AO1 T01611005






000
SXUS55 KMSO 312313
OSOMSO
MONTANA AWOS SUMMARY
NATIONAL WEATHER SERVICE MISSOULA MT
513 PM MDT FRI OCT 31 2014

Montana AWOS Reports

TWIN BRIDGES|K7S1 312255Z AUTO 12006KT 40SM 20/M01 A2982 RMK AO1 T02001005
MALTA       |KM75 312255Z AUTO 07004KT 40SM 12/02 A2975 RMK AO1 T01170022






000
SXUS55 KMSO 312303
OSOMSO
MONTANA AWOS SUMMARY
NATIONAL WEATHER SERVICE MISSOULA MT
503 PM MDT FRI OCT 31 2014

Montana AWOS Reports

LAUREL      |K6S8 312255Z AUTO 00000KT 25SM 17/00 A2982 RMK AO1 T01670000
SCOBEY      |K9S2 312255Z AUTO 12012G25KT 40SM 08/M02 A2987 RMK AO1 T00831016
ROUNDUP     |KRPX 312255Z AUTO 00000KT 40SM 17/00 A2973 RMK AO1 T01670000






000
SXUS55 KMSO 312303
OSOMSO
MONTANA AWOS SUMMARY
NATIONAL WEATHER SERVICE MISSOULA MT
503 PM MDT FRI OCT 31 2014

Montana AWOS Reports

LAUREL      |K6S8 312255Z AUTO 00000KT 25SM 17/00 A2982 RMK AO1 T01670000
SCOBEY      |K9S2 312255Z AUTO 12012G25KT 40SM 08/M02 A2987 RMK AO1 T00831016
ROUNDUP     |KRPX 312255Z AUTO 00000KT 40SM 17/00 A2973 RMK AO1 T01670000






000
SXUS55 KMSO 312244
OSOMSO
MONTANA AWOS SUMMARY
NATIONAL WEATHER SERVICE MISSOULA MT
443 PM MDT FRI OCT 31 2014

Montana AWOS Reports

LAUREL      |K6S8 312235Z AUTO 00000KT 25SM 17/00 A2982 RMK AO1 T01670000
ROUNDUP     |KRPX 312235Z AUTO 00000KT 40SM 18/01 A2973 RMK AO1 T01780006






000
SXUS55 KMSO 312244
OSOMSO
MONTANA AWOS SUMMARY
NATIONAL WEATHER SERVICE MISSOULA MT
443 PM MDT FRI OCT 31 2014

Montana AWOS Reports

LAUREL      |K6S8 312235Z AUTO 00000KT 25SM 17/00 A2982 RMK AO1 T01670000
ROUNDUP     |KRPX 312235Z AUTO 00000KT 40SM 18/01 A2973 RMK AO1 T01780006






000
SXUS55 KMSO 312233
OSOMSO
MONTANA AWOS SUMMARY
NATIONAL WEATHER SERVICE MISSOULA MT
433 PM MDT FRI OCT 31 2014

Montana AWOS Reports

MALTA       |KM75 312155Z AUTO 10007KT 40SM 11/02 A2977 RMK AO1 T01110022






000
SXUS55 KMSO 312233
OSOMSO
MONTANA AWOS SUMMARY
NATIONAL WEATHER SERVICE MISSOULA MT
433 PM MDT FRI OCT 31 2014

Montana AWOS Reports

MALTA       |KM75 312155Z AUTO 10007KT 40SM 11/02 A2977 RMK AO1 T01110022






000
SXUS55 KMSO 312223
OSOMSO
MONTANA AWOS SUMMARY
NATIONAL WEATHER SERVICE MISSOULA MT
423 PM MDT FRI OCT 31 2014

Montana AWOS Reports

LAUREL      |K6S8 312215Z AUTO 00000KT 25SM 16/M01 A2982 RMK AO1 T01611005
ROUNDUP     |KRPX 312215Z AUTO 00000KT 40SM 18/01 A2973 RMK AO1 T01780006
MALTA       |KM75 312055Z AUTO 11008KT 40SM 12/02 A2979 RMK AO1 T01170022






000
SXUS55 KMSO 312214
OSOMSO
MONTANA AWOS SUMMARY
NATIONAL WEATHER SERVICE MISSOULA MT
413 PM MDT FRI OCT 31 2014

Montana AWOS Reports

SCOBEY      |K9S2 312155Z AUTO 12019G26KT 40SM 09/M02 A2986 RMK AO1 T00891016






000
SXUS55 KMSO 312204
OSOMSO
MONTANA AWOS SUMMARY
NATIONAL WEATHER SERVICE MISSOULA MT
403 PM MDT FRI OCT 31 2014

Montana AWOS Reports

LAUREL      |K6S8 312155Z AUTO 00000KT 25SM 16/M01 A2982 RMK AO1 T01611010
TWIN BRIDGES|K7S1 312155Z AUTO 18006KT 7SM 18/M01 A2981 RMK AO1 T01831010
ROUNDUP     |KRPX 312155Z AUTO 00000KT 40SM 18/01 A2974 RMK AO1 T01780006






000
SXUS55 KMSO 312143
OSOMSO
MONTANA AWOS SUMMARY
NATIONAL WEATHER SERVICE MISSOULA MT
343 PM MDT FRI OCT 31 2014

Montana AWOS Reports

LAUREL      |K6S8 312135Z AUTO 00000KT 25SM 16/M01 A2983 RMK AO1 T01611005
ROUNDUP     |KRPX 312135Z AUTO 00000KT 40SM 17/01 A2974 RMK AO1 T01720006






000
SXUS55 KMSO 312124
OSOMSO
MONTANA AWOS SUMMARY
NATIONAL WEATHER SERVICE MISSOULA MT
323 PM MDT FRI OCT 31 2014

Montana AWOS Reports

LAUREL      |K6S8 312115Z AUTO 00000KT 25SM 16/M01 A2983 RMK AO1 T01561010
ROUNDUP     |KRPX 312115Z AUTO 00000KT 40SM 17/01 A2974 RMK AO1 T01720006






000
SXUS55 KMSO 312103
OSOMSO
MONTANA AWOS SUMMARY
NATIONAL WEATHER SERVICE MISSOULA MT
303 PM MDT FRI OCT 31 2014

Montana AWOS Reports

ROUNDUP     |KRPX 312055Z AUTO 00000KT 40SM 17/00 A2975 RMK AO1 T01670000
TWIN BRIDGES|K7S1 312055Z AUTO 13006KT 40SM 19/00 A2982 RMK AO1 T01940000






000
SXUS55 KMSO 312044
OSOMSO
MONTANA AWOS SUMMARY
NATIONAL WEATHER SERVICE MISSOULA MT
243 PM MDT FRI OCT 31 2014

Montana AWOS Reports

LAUREL      |K6S8 312035Z AUTO 00000KT 25SM 15/M01 A2984 RMK AO1 T01501010
ROUNDUP     |KRPX 312035Z AUTO 00000KT 40SM 16/01 A2975 RMK AO1 T01560006






000
SXUS55 KMSO 312033
OSOMSO
MONTANA AWOS SUMMARY
NATIONAL WEATHER SERVICE MISSOULA MT
233 PM MDT FRI OCT 31 2014

Montana AWOS Reports

MALTA       |KM75 311955Z AUTO 10008KT 40SM 11/02 A2980 RMK AO1 T01060017






000
SXUS55 KMSO 312023
OSOMSO
MONTANA AWOS SUMMARY
NATIONAL WEATHER SERVICE MISSOULA MT
223 PM MDT FRI OCT 31 2014

Montana AWOS Reports

LAUREL      |K6S8 312015Z AUTO 00000KT 25SM 14/M01 A2984 RMK AO1 T01441010
ROUNDUP     |KRPX 312015Z AUTO 00000KT 40SM 14/01 A2977 RMK AO1 T01440006






000
SXUS55 KMSO 312003
OSOMSO
MONTANA AWOS SUMMARY
NATIONAL WEATHER SERVICE MISSOULA MT
203 PM MDT FRI OCT 31 2014

Montana AWOS Reports

LAUREL      |K6S8 311955Z AUTO 00000KT 15SM 13/M01 A2985 RMK AO1 T01331010
SCOBEY      |K9S2 311955Z AUTO 13025G32KT 40SM 08/M02 A2991 RMK AO1 T00831016
TWIN BRIDGES|K7S1 311955Z AUTO 13004KT 40SM 17/M01 A2985 RMK AO1 T01671005
ROUNDUP     |KRPX 311955Z AUTO 00000KT 40SM 14/M01 A2977 RMK AO1 T01391005






000
SXUS55 KMSO 311944
OSOMSO
MONTANA AWOS SUMMARY
NATIONAL WEATHER SERVICE MISSOULA MT
143 PM MDT FRI OCT 31 2014

Montana AWOS Reports

LAUREL      |K6S8 311935Z AUTO 00000KT 25SM 13/M01 A2986 RMK AO1 T01281010
ROUNDUP     |KRPX 311935Z AUTO 00000KT 40SM 14/00 A2978 RMK AO1 T01390000






000
SXUS55 KMSO 311924
OSOMSO
MONTANA AWOS SUMMARY
NATIONAL WEATHER SERVICE MISSOULA MT
123 PM MDT FRI OCT 31 2014

Montana AWOS Reports

LAUREL      |K6S8 311915Z AUTO 00000KT 40SM 13/M01 A2986 RMK AO1 T01281010
ROUNDUP     |KRPX 311915Z AUTO 00000KT 40SM 13/00 A2979 RMK AO1 T01330000






000
SXUS55 KMSO 311903
OSOMSO
MONTANA AWOS SUMMARY
NATIONAL WEATHER SERVICE MISSOULA MT
103 PM MDT FRI OCT 31 2014

Montana AWOS Reports

LAUREL      |K6S8 311855Z AUTO 00000KT 40SM 13/M02 A2987 RMK AO1 T01281016
PLAINS      |KS34 311855Z AUTO 00000KT 25SM 09/06 A2980 RMK AO1 T00940061
TWIN BRIDGES|K7S1 311855Z AUTO 00000KT 40SM 13/02 A2988 RMK AO1 T01330017
ROUNDUP     |KRPX 311855Z AUTO 00000KT 40SM 12/00 A2980 RMK AO1 T01220000
SCOBEY      |K9S2 311855Z AUTO 13022G32KT 25SM 07/M02 A2995 RMK AO1 T00721021
MALTA       |KM75 311855Z AUTO 10009G14KT 40SM 10/02 A2983 RMK AO1 T01000022






000
SXUS55 KMSO 311843
OSOMSO
MONTANA AWOS SUMMARY
NATIONAL WEATHER SERVICE MISSOULA MT
1243 PM MDT FRI OCT 31 2014

Montana AWOS Reports

LAUREL      |K6S8 311835Z AUTO 00000KT 40SM 12/M01 A2988 RMK AO1 T01171010
ROUNDUP     |KRPX 311835Z AUTO 00000KT 40SM 11/00 A2981 RMK AO1 T01110000






000
SXUS55 KMSO 311824
OSOMSO
MONTANA AWOS SUMMARY
NATIONAL WEATHER SERVICE MISSOULA MT
1223 PM MDT FRI OCT 31 2014

Montana AWOS Reports

LAUREL      |K6S8 311815Z AUTO 00000KT 25SM 11/M02 A2990 RMK AO1 T01061016
ROUNDUP     |KRPX 311815Z AUTO 26005KT 40SM 10/00 A2982 RMK AO1 T01000000






000
SXUS55 KMSO 311804
OSOMSO
MONTANA AWOS SUMMARY
NATIONAL WEATHER SERVICE MISSOULA MT
1203 PM MDT FRI OCT 31 2014

Montana AWOS Reports

LAUREL      |K6S8 311755Z AUTO 00000KT 25SM 09/M01 A2991 RMK AO1 T00891010
ROUNDUP     |KRPX 311755Z AUTO 20004KT 40SM 08/M01 A2983 RMK AO1 T00781005
SCOBEY      |K9S2 311755Z AUTO 13017G28KT 25SM 06/M02 A3000 RMK AO1 T00561021
TWIN BRIDGES|K7S1 311755Z AUTO 19005KT 10SM 09/M01 A2990 RMK AO1 T00941005
MALTA       |KM75 311755Z AUTO 09008KT 40SM 08/01 A2987 RMK AO1 T00780011






000
SXUS55 KMSO 311754
OSOMSO
MONTANA AWOS SUMMARY
NATIONAL WEATHER SERVICE MISSOULA MT
1153 AM MDT FRI OCT 31 2014

Montana AWOS Reports

ROUNDUP     |KRPX 311735Z AUTO 20006KT 40SM 07/M01 A2984 RMK AO1 T00721005






000
SXUS55 KMSO 311743
OSOMSO
MONTANA AWOS SUMMARY
NATIONAL WEATHER SERVICE MISSOULA MT
1143 AM MDT FRI OCT 31 2014

Montana AWOS Reports

LAUREL      |K6S8 311735Z AUTO 00000KT 25SM 07/M02 A2991 RMK AO1 T00671016






000
SXUS55 KMSO 311733
OSOMSO
MONTANA AWOS SUMMARY
NATIONAL WEATHER SERVICE MISSOULA MT
1132 AM MDT FRI OCT 31 2014

Montana AWOS Reports

ROUNDUP     |KRPX 311715Z AUTO 00000KT 40SM 06/M01 A2984 RMK AO1 T00561005






000
SXUS55 KMSO 311723
OSOMSO
MONTANA AWOS SUMMARY
NATIONAL WEATHER SERVICE MISSOULA MT
1122 AM MDT FRI OCT 31 2014

Montana AWOS Reports

LAUREL      |K6S8 311715Z AUTO 00000KT 25SM 07/M02 A2992 RMK AO1 T00671016






000
SXUS55 KMSO 311703
OSOMSO
MONTANA AWOS SUMMARY
NATIONAL WEATHER SERVICE MISSOULA MT
1103 AM MDT FRI OCT 31 2014

Montana AWOS Reports

LAUREL      |K6S8 311655Z AUTO 00000KT 25SM 07/M02 A2993 RMK AO1 T00721016
ROUNDUP     |KRPX 311655Z AUTO 20004KT 40SM 04/M01 A2986 RMK AO1 T00441005
SCOBEY      |K9S2 311655Z AUTO 14021G33KT 15SM 03/M03 A3003 RMK AO1 T00281032
MALTA       |KM75 311655Z AUTO 10007KT 40SM 07/02 A2989 RMK AO1 T00670017
PLAINS      |KS34 311655Z AUTO 00000KT 15SM 06/04 A2982 RMK AO1 T00560039
TWIN BRIDGES|K7S1 311655Z AUTO 00000KT 40SM 03/M01 A2993 RMK AO1 T00281010






000
SXUS55 KMSO 311643
OSOMSO
MONTANA AWOS SUMMARY
NATIONAL WEATHER SERVICE MISSOULA MT
1043 AM MDT FRI OCT 31 2014

Montana AWOS Reports

LAUREL      |K6S8 311635Z AUTO 00000KT 40SM 07/M02 A2994 RMK AO1 T00721021
ROUNDUP     |KRPX 311635Z AUTO 00000KT 40SM 02/M02 A2987 RMK AO1 T00221016






000
SXUS55 KMSO 311643
OSOMSO
MONTANA AWOS SUMMARY
NATIONAL WEATHER SERVICE MISSOULA MT
1043 AM MDT FRI OCT 31 2014

Montana AWOS Reports

LAUREL      |K6S8 311635Z AUTO 00000KT 40SM 07/M02 A2994 RMK AO1 T00721021
ROUNDUP     |KRPX 311635Z AUTO 00000KT 40SM 02/M02 A2987 RMK AO1 T00221016






000
SXUS55 KMSO 311624
OSOMSO
MONTANA AWOS SUMMARY
NATIONAL WEATHER SERVICE MISSOULA MT
1023 AM MDT FRI OCT 31 2014

Montana AWOS Reports

LAUREL      |K6S8 311615Z AUTO 00000KT 40SM 06/M02 A2995 RMK AO1 T00611021
ROUNDUP     |KRPX 311615Z AUTO 20008KT 40SM 01/M02 A2988 RMK AO1 T00111021






000
SXUS55 KMSO 311613
OSOMSO
MONTANA AWOS SUMMARY
NATIONAL WEATHER SERVICE MISSOULA MT
1013 AM MDT FRI OCT 31 2014

Montana AWOS Reports

ROUNDUP     |KRPX 311555Z AUTO 20006KT 40SM 01/M02 A2988 RMK AO1 T00061021
MALTA       |KM75 311555Z AUTO 09010G15KT 25SM 04/00 A2993 RMK AO1 T00440000
PLAINS      |KS34 311555Z AUTO 00000KT 10SM 05/03 A2982 RMK AO1 T00500028
TWIN BRIDGES|K7S1 311555Z AUTO 00000KT 40SM 02/M02 A2993 RMK AO1 T00221016
SCOBEY      |K9S2 311555Z AUTO 13019G29KT 15SM 01/M04 A3007 RMK AO1 T00111038






000
SXUS55 KMSO 311603
OSOMSO
MONTANA AWOS SUMMARY
NATIONAL WEATHER SERVICE MISSOULA MT
1003 AM MDT FRI OCT 31 2014

Montana AWOS Reports

LAUREL      |K6S8 311555Z AUTO 00000KT 25SM 05/M03 A2996 RMK AO1 T00501027






000
SXUS55 KMSO 311553
OSOMSO
MONTANA AWOS SUMMARY
NATIONAL WEATHER SERVICE MISSOULA MT
952 AM MDT FRI OCT 31 2014

Montana AWOS Reports

LAUREL      |K6S8 311535Z AUTO 00000KT 40SM 04/M03 A2997 RMK AO1 T00441032
ROUNDUP     |KRPX 311535Z AUTO 20012KT 40SM M01/M03 A2989 RMK AO1 T10051032






000
SXUS55 KMSO 311523
OSOMSO
MONTANA AWOS SUMMARY
NATIONAL WEATHER SERVICE MISSOULA MT
923 AM MDT FRI OCT 31 2014

Montana AWOS Reports

LAUREL      |K6S8 311515Z AUTO 00000KT 40SM 03/M04 A2997 RMK AO1 T00331038
ROUNDUP     |KRPX 311515Z AUTO 19008KT 40SM M01/M03 A2990 RMK AO1 T10051032






000
SXUS55 KMSO 311504
OSOMSO
MONTANA AWOS SUMMARY
NATIONAL WEATHER SERVICE MISSOULA MT
903 AM MDT FRI OCT 31 2014

Montana AWOS Reports

LAUREL      |K6S8 311455Z AUTO 00000KT 40SM 02/M04 A2997 RMK AO1 T00221038
SCOBEY      |K9S2 311455Z AUTO 12018G26KT 10SM 00/M04 A3008 RMK AO1 T00001038
PLAINS      |KS34 311455Z AUTO 00000KT 10SM 04/02 A2982 RMK AO1 T00390017
TWIN BRIDGES|K7S1 311455Z AUTO 00000KT 3SM M02/M05 A2995 RMK AO1 T10161049
ROUNDUP     |KRPX 311455Z AUTO 20006KT 40SM M01/M03 A2991 RMK AO1 T10051032
MALTA       |KM75 311455Z AUTO 07006KT 15SM 01/M02 A2996 RMK AO1 T00111016






000
SXUS55 KMSO 311443
OSOMSO
MONTANA AWOS SUMMARY
NATIONAL WEATHER SERVICE MISSOULA MT
843 AM MDT FRI OCT 31 2014

Montana AWOS Reports

LAUREL      |K6S8 311435Z AUTO 00000KT 40SM 01/M04 A2998 RMK AO1 T00111043
ROUNDUP     |KRPX 311435Z AUTO 00000KT 40SM M01/M03 A2991 RMK AO1 T10051027






000
SXUS55 KMSO 311423
OSOMSO
MONTANA AWOS SUMMARY
NATIONAL WEATHER SERVICE MISSOULA MT
823 AM MDT FRI OCT 31 2014

Montana AWOS Reports

LAUREL      |K6S8 311415Z AUTO 00000KT 40SM 01/M05 A2998 RMK AO1 T00061049
ROUNDUP     |KRPX 311415Z AUTO 00000KT 40SM 00/M02 A2991 RMK AO1 T00001021






000
SXUS55 KMSO 311413
OSOMSO
MONTANA AWOS SUMMARY
NATIONAL WEATHER SERVICE MISSOULA MT
813 AM MDT FRI OCT 31 2014

Montana AWOS Reports

MALTA       |KM75 311355Z AUTO 07004KT 15SM 00/M03 A2997 RMK AO1 T00001027






000
SXUS55 KMSO 311403
OSOMSO
MONTANA AWOS SUMMARY
NATIONAL WEATHER SERVICE MISSOULA MT
803 AM MDT FRI OCT 31 2014

Montana AWOS Reports

LAUREL      |K6S8 311355Z AUTO 00000KT 40SM 01/M06 A2998 RMK AO1 T00061055
TWIN BRIDGES|K7S1 311355Z AUTO 00000KT 40SM 01/M03 A2995 RMK AO1 T00111027
ROUNDUP     |KRPX 311355Z AUTO 00000KT 40SM M01/M03 A2991 RMK AO1 T10051027






000
SXUS55 KMSO 311344
OSOMSO
MONTANA AWOS SUMMARY
NATIONAL WEATHER SERVICE MISSOULA MT
743 AM MDT FRI OCT 31 2014

Montana AWOS Reports

LAUREL      |K6S8 311335Z AUTO 00000KT 40SM 01/M04 A2999 RMK AO1 T00111038
ROUNDUP     |KRPX 311335Z AUTO 00000KT 40SM M01/M03 A2992 RMK AO1 T10101032






000
SXUS55 KMSO 311344
OSOMSO
MONTANA AWOS SUMMARY
NATIONAL WEATHER SERVICE MISSOULA MT
743 AM MDT FRI OCT 31 2014

Montana AWOS Reports

LAUREL      |K6S8 311335Z AUTO 00000KT 40SM 01/M04 A2999 RMK AO1 T00111038
ROUNDUP     |KRPX 311335Z AUTO 00000KT 40SM M01/M03 A2992 RMK AO1 T10101032






000
SXUS55 KMSO 311323
OSOMSO
MONTANA AWOS SUMMARY
NATIONAL WEATHER SERVICE MISSOULA MT
723 AM MDT FRI OCT 31 2014

Montana AWOS Reports

MALTA       |KM75 311255Z AUTO 07006KT 15SM 01/M02 A3001 RMK AO1 T00061021
LAUREL      |K6S8 311315Z AUTO 00000KT 40SM 02/M03 A2999 RMK AO1 T00171032
ROUNDUP     |KRPX 311315Z AUTO 00000KT 25SM M01/M03 A2993 RMK AO1 T10101032






000
SXUS55 KMSO 311303
OSOMSO
MONTANA AWOS SUMMARY
NATIONAL WEATHER SERVICE MISSOULA MT
703 AM MDT FRI OCT 31 2014

Montana AWOS Reports

LAUREL      |K6S8 311255Z AUTO 00000KT 40SM 01/M04 A3000 RMK AO1 T00111043
ROUNDUP     |KRPX 311255Z AUTO 00000KT 25SM M01/M03 A2994 RMK AO1 T10051027
TWIN BRIDGES|K7S1 311255Z AUTO 00000KT 40SM 01/M03 A2997 RMK AO1 T00061027






000
SXUS55 KMSO 311253
OSOMSO
MONTANA AWOS SUMMARY
NATIONAL WEATHER SERVICE MISSOULA MT
652 AM MDT FRI OCT 31 2014

Montana AWOS Reports

ROUNDUP     |KRPX 311235Z AUTO 00000KT 25SM M01/M04 A2995 RMK AO1 T10101038






000
SXUS55 KMSO 311243
OSOMSO
MONTANA AWOS SUMMARY
NATIONAL WEATHER SERVICE MISSOULA MT
643 AM MDT FRI OCT 31 2014

Montana AWOS Reports

LAUREL      |K6S8 311235Z AUTO 00000KT 40SM 02/M03 A3001 RMK AO1 T00221032






000
SXUS55 KMSO 311233
OSOMSO
MONTANA AWOS SUMMARY
NATIONAL WEATHER SERVICE MISSOULA MT
633 AM MDT FRI OCT 31 2014

Montana AWOS Reports

MALTA       |KM75 311155Z AUTO 07005KT 15SM 01/M02 A3003 RMK AO1 T00061021






000
SXUS55 KMSO 311223
OSOMSO
MONTANA AWOS SUMMARY
NATIONAL WEATHER SERVICE MISSOULA MT
623 AM MDT FRI OCT 31 2014

Montana AWOS Reports

LAUREL      |K6S8 311215Z AUTO 00000KT 40SM 02/M03 A3002 RMK AO1 T00221032
ROUNDUP     |KRPX 311215Z AUTO 00000KT 25SM M01/M03 A2995 RMK AO1 T10051032






000
SXUS55 KMSO 311203
OSOMSO
MONTANA AWOS SUMMARY
NATIONAL WEATHER SERVICE MISSOULA MT
603 AM MDT FRI OCT 31 2014

Montana AWOS Reports

LAUREL      |K6S8 311155Z AUTO 00000KT 40SM 03/M03 A3002 RMK AO1 T00281027
TWIN BRIDGES|K7S1 311155Z AUTO 00000KT 25SM M01/M04 A2998 RMK AO1 T10101038
ROUNDUP     |KRPX 311155Z AUTO 00000KT 25SM M01/M04 A2996 RMK AO1 T10051038
SCOBEY      |K9S2 311155Z AUTO 13014G26KT 5SM M01/M04 A3017 RMK AO1 T10051043






000
SXUS55 KMSO 311143
OSOMSO
MONTANA AWOS SUMMARY
NATIONAL WEATHER SERVICE MISSOULA MT
543 AM MDT FRI OCT 31 2014

Montana AWOS Reports

LAUREL      |K6S8 311135Z AUTO 29004KT 40SM 03/M03 A3003 RMK AO1 T00281027
ROUNDUP     |KRPX 311135Z AUTO 00000KT 40SM 01/M03 A2997 RMK AO1 T00061027






000
SXUS55 KMSO 311123
OSOMSO
MONTANA AWOS SUMMARY
NATIONAL WEATHER SERVICE MISSOULA MT
523 AM MDT FRI OCT 31 2014

Montana AWOS Reports

LAUREL      |K6S8 311115Z AUTO 00000KT 40SM 03/M03 A3003 RMK AO1 T00281032
ROUNDUP     |KRPX 311115Z AUTO 00000KT 40SM 01/M03 A2998 RMK AO1 T00061027






000
SXUS55 KMSO 311113
OSOMSO
MONTANA AWOS SUMMARY
NATIONAL WEATHER SERVICE MISSOULA MT
513 AM MDT FRI OCT 31 2014

Montana AWOS Reports

MALTA       |KM75 311055Z AUTO 07007KT 15SM 01/M02 A3007 RMK AO1 T00111021






000
SXUS55 KMSO 311103
OSOMSO
MONTANA AWOS SUMMARY
NATIONAL WEATHER SERVICE MISSOULA MT
503 AM MDT FRI OCT 31 2014

Montana AWOS Reports

LAUREL      |K6S8 311055Z AUTO 00000KT 40SM 03/M03 A3004 RMK AO1 T00331027
ROUNDUP     |KRPX 311055Z AUTO 00000KT 40SM 01/M03 A2998 RMK AO1 T00061027






000
SXUS55 KMSO 311043
OSOMSO
MONTANA AWOS SUMMARY
NATIONAL WEATHER SERVICE MISSOULA MT
443 AM MDT FRI OCT 31 2014

Montana AWOS Reports

LAUREL      |K6S8 311035Z AUTO 00000KT 40SM 03/M05 A3004 RMK AO1 T00331049
ROUNDUP     |KRPX 311035Z AUTO 00000KT 40SM 00/M03 A2999 RMK AO1 T00001032






000
SXUS55 KMSO 311043
OSOMSO
MONTANA AWOS SUMMARY
NATIONAL WEATHER SERVICE MISSOULA MT
443 AM MDT FRI OCT 31 2014

Montana AWOS Reports

LAUREL      |K6S8 311035Z AUTO 00000KT 40SM 03/M05 A3004 RMK AO1 T00331049
ROUNDUP     |KRPX 311035Z AUTO 00000KT 40SM 00/M03 A2999 RMK AO1 T00001032






000
SXUS55 KMSO 311023
OSOMSO
MONTANA AWOS SUMMARY
NATIONAL WEATHER SERVICE MISSOULA MT
423 AM MDT FRI OCT 31 2014

Montana AWOS Reports

LAUREL      |K6S8 311015Z AUTO 00000KT 40SM 04/M05 A3004 RMK AO1 T00391049
ROUNDUP     |KRPX 311015Z AUTO 00000KT 40SM 01/M03 A3000 RMK AO1 T00111027






000
SXUS55 KMSO 311013
OSOMSO
MONTANA AWOS SUMMARY
NATIONAL WEATHER SERVICE MISSOULA MT
413 AM MDT FRI OCT 31 2014

Montana AWOS Reports

MALTA       |KM75 310955Z AUTO 07008KT 15SM 01/M02 A3010 RMK AO1 T00111021






000
SXUS55 KMSO 311003
OSOMSO
MONTANA AWOS SUMMARY
NATIONAL WEATHER SERVICE MISSOULA MT
403 AM MDT FRI OCT 31 2014

Montana AWOS Reports

LAUREL      |K6S8 310955Z AUTO 00000KT 40SM 03/M04 A3005 RMK AO1 T00331043
ROUNDUP     |KRPX 310955Z AUTO 00000KT 40SM 01/M02 A3000 RMK AO1 T00111021
PLAINS      |KS34 310955Z AUTO 00000KT 1/4SM 03/01 A2989 RMK AO1 T00330011
TWIN BRIDGES|K7S1 310955Z AUTO 33004KT 40SM 01/M03 A3001 RMK AO1 T00061027
SCOBEY      |K9S2 310955Z AUTO 12019G25KT 25SM M01/M04 A3022 RMK AO1 T10051043






000
SXUS55 KMSO 311003
OSOMSO
MONTANA AWOS SUMMARY
NATIONAL WEATHER SERVICE MISSOULA MT
403 AM MDT FRI OCT 31 2014

Montana AWOS Reports

LAUREL      |K6S8 310955Z AUTO 00000KT 40SM 03/M04 A3005 RMK AO1 T00331043
ROUNDUP     |KRPX 310955Z AUTO 00000KT 40SM 01/M02 A3000 RMK AO1 T00111021
PLAINS      |KS34 310955Z AUTO 00000KT 1/4SM 03/01 A2989 RMK AO1 T00330011
TWIN BRIDGES|K7S1 310955Z AUTO 33004KT 40SM 01/M03 A3001 RMK AO1 T00061027
SCOBEY      |K9S2 310955Z AUTO 12019G25KT 25SM M01/M04 A3022 RMK AO1 T10051043






000
SXUS55 KMSO 310953
OSOMSO
MONTANA AWOS SUMMARY
NATIONAL WEATHER SERVICE MISSOULA MT
352 AM MDT FRI OCT 31 2014

Montana AWOS Reports

ROUNDUP     |KRPX 310935Z AUTO 00000KT 40SM 01/M02 A3001 RMK AO1 T00111021






000
SXUS55 KMSO 310953
OSOMSO
MONTANA AWOS SUMMARY
NATIONAL WEATHER SERVICE MISSOULA MT
352 AM MDT FRI OCT 31 2014

Montana AWOS Reports

ROUNDUP     |KRPX 310935Z AUTO 00000KT 40SM 01/M02 A3001 RMK AO1 T00111021






000
SXUS55 KMSO 310923
OSOMSO
MONTANA AWOS SUMMARY
NATIONAL WEATHER SERVICE MISSOULA MT
323 AM MDT FRI OCT 31 2014

Montana AWOS Reports

LAUREL      |K6S8 310915Z AUTO 00000KT 40SM 04/M03 A3007 RMK AO1 T00391032
ROUNDUP     |KRPX 310915Z AUTO 00000KT 40SM 01/M03 A3002 RMK AO1 T00061027






000
SXUS55 KMSO 310913
OSOMSO
MONTANA AWOS SUMMARY
NATIONAL WEATHER SERVICE MISSOULA MT
313 AM MDT FRI OCT 31 2014

Montana AWOS Reports

SCOBEY      |K9S2 310855Z AUTO 13015G25KT 15SM 00/M04 A3026 RMK AO1 T00001038
MALTA       |KM75 310855Z AUTO 08007KT 15SM 02/M02 A3013 RMK AO1 T00171016






000
SXUS55 KMSO 310904
OSOMSO
MONTANA AWOS SUMMARY
NATIONAL WEATHER SERVICE MISSOULA MT
303 AM MDT FRI OCT 31 2014

Montana AWOS Reports

LAUREL      |K6S8 310855Z AUTO 40SM 05/M03 A3008 RMK AO1 T00501027
TWIN BRIDGES|K7S1 310855Z AUTO 00000KT 40SM 01/M03 A3004 RMK AO1 T00061027
ROUNDUP     |KRPX 310855Z AUTO 00000KT 40SM 01/M02 A3003 RMK AO1 T00111021
PLAINS      |KS34 310855Z AUTO 00000KT 1/2SM 03/01 A2991 RMK AO1 T00330011






000
SXUS55 KMSO 310843
OSOMSO
MONTANA AWOS SUMMARY
NATIONAL WEATHER SERVICE MISSOULA MT
243 AM MDT FRI OCT 31 2014

Montana AWOS Reports

LAUREL      |K6S8 310835Z AUTO 00000KT 40SM 05/M03 A3008 RMK AO1 T00501027
ROUNDUP     |KRPX 310835Z AUTO 00000KT 40SM 02/M02 A3003 RMK AO1 T00171016






000
SXUS55 KMSO 310823
OSOMSO
MONTANA AWOS SUMMARY
NATIONAL WEATHER SERVICE MISSOULA MT
223 AM MDT FRI OCT 31 2014

Montana AWOS Reports

LAUREL      |K6S8 310815Z AUTO 00000KT 40SM 05/M03 A3009 RMK AO1 T00501027
ROUNDUP     |KRPX 310815Z AUTO 00000KT 40SM 02/M02 A3004 RMK AO1 T00171016






000
SXUS55 KMSO 310813
OSOMSO
MONTANA AWOS SUMMARY
NATIONAL WEATHER SERVICE MISSOULA MT
212 AM MDT FRI OCT 31 2014

Montana AWOS Reports

ROUNDUP     |KRPX 310755Z AUTO 00000KT 40SM 02/M02 A3005 RMK AO1 T00171016
PLAINS      |KS34 310755Z AUTO 00000KT 1/4SM 03/01 A2993 RMK AO1 T00330011
TWIN BRIDGES|K7S1 310755Z AUTO 00000KT 40SM 02/M02 A3005 RMK AO1 T00221021
MALTA       |KM75 310755Z AUTO 07009G13KT 15SM 02/M02 A3016 RMK AO1 T00171016






000
SXUS55 KMSO 310803
OSOMSO
MONTANA AWOS SUMMARY
NATIONAL WEATHER SERVICE MISSOULA MT
203 AM MDT FRI OCT 31 2014

Montana AWOS Reports

LAUREL      |K6S8 310755Z AUTO 34004KT 40SM 05/M04 A3010 RMK AO1 T00501043
SCOBEY      |K9S2 310755Z AUTO 13018G26KT 10SM 00/M04 A3028 RMK AO1 T00001043






000
SXUS55 KMSO 310753
OSOMSO
MONTANA AWOS SUMMARY
NATIONAL WEATHER SERVICE MISSOULA MT
153 AM MDT FRI OCT 31 2014

Montana AWOS Reports

ROUNDUP     |KRPX 310735Z AUTO 00000KT 40SM 01/M02 A3006 RMK AO1 T00111021






000
SXUS55 KMSO 310743
OSOMSO
MONTANA AWOS SUMMARY
NATIONAL WEATHER SERVICE MISSOULA MT
143 AM MDT FRI OCT 31 2014

Montana AWOS Reports

LAUREL      |K6S8 310735Z AUTO 35004KT 40SM 06/M04 A3011 RMK AO1 T00561038






000
SXUS55 KMSO 310724
OSOMSO
MONTANA AWOS SUMMARY
NATIONAL WEATHER SERVICE MISSOULA MT
123 AM MDT FRI OCT 31 2014

Montana AWOS Reports

LAUREL      |K6S8 310715Z AUTO 34004KT 40SM 06/M04 A3011 RMK AO1 T00561043
ROUNDUP     |KRPX 310715Z AUTO 00000KT 40SM 02/M02 A3007 RMK AO1 T00171021






000
SXUS55 KMSO 310703
OSOMSO
MONTANA AWOS SUMMARY
NATIONAL WEATHER SERVICE MISSOULA MT
103 AM MDT FRI OCT 31 2014

Montana AWOS Reports

LAUREL      |K6S8 310655Z AUTO 34004KT 40SM 06/M04 A3012 RMK AO1 T00611038
SCOBEY      |K9S2 310655Z AUTO 13015G25KT 10SM 01/M04 A3030 RMK AO1 T00061038
MALTA       |KM75 310655Z AUTO 09006KT 25SM 02/M01 A3020 RMK AO1 T00221010
PLAINS      |KS34 310655Z AUTO 00000KT 1/2SM 04/02 A2995 RMK AO1 T00390017
TWIN BRIDGES|K7S1 310655Z AUTO 00000KT 25SM 01/M03 A3006 RMK AO1 T00111027
ROUNDUP     |KRPX 310655Z AUTO 00000KT 40SM 02/M02 A3007 RMK AO1 T00221021






000
SXUS55 KMSO 310643
OSOMSO
MONTANA AWOS SUMMARY
NATIONAL WEATHER SERVICE MISSOULA MT
1243 AM MDT FRI OCT 31 2014

Montana AWOS Reports

LAUREL      |K6S8 310635Z AUTO 35005KT 40SM 06/M04 A3013 RMK AO1 T00611038






000
SXUS55 KMSO 310623
OSOMSO
MONTANA AWOS SUMMARY
NATIONAL WEATHER SERVICE MISSOULA MT
1223 AM MDT FRI OCT 31 2014

Montana AWOS Reports

LAUREL      |K6S8 310615Z AUTO 35007KT 40SM 06/M03 A3012 RMK AO1 T00611032
ROUNDUP     |KRPX 310615Z AUTO 00000KT 40SM 03/M01 A3009 RMK AO1 T00331010






000
SXUS55 KMSO 310613
OSOMSO
MONTANA AWOS SUMMARY
NATIONAL WEATHER SERVICE MISSOULA MT
1213 AM MDT FRI OCT 31 2014

Montana AWOS Reports

PLAINS      |KS34 310555Z AUTO 00000KT 10SM 06/03 A2997 RMK AO1 T00560028






000
SXUS55 KMSO 310603
OSOMSO
MONTANA AWOS SUMMARY
NATIONAL WEATHER SERVICE MISSOULA MT
1203 AM MDT FRI OCT 31 2014

Montana AWOS Reports

LAUREL      |K6S8 310555Z AUTO 34006KT 40SM 06/M03 A3013 RMK AO1 T00611032
ROUNDUP     |KRPX 310555Z AUTO 00000KT 40SM 03/M01 A3010 RMK AO1 T00331010
MALTA       |KM75 310555Z AUTO 10008KT 25SM 02/M01 A3022 RMK AO1 T00221010
TWIN BRIDGES|K7S1 310555Z AUTO 00000KT 40SM 02/M02 A3008 RMK AO1 T00171021
SCOBEY      |K9S2 310555Z AUTO 12018KT 7SM 01/M04 A3033 RMK AO1 T00061038






000
SXUS55 KMSO 310543
OSOMSO
MONTANA AWOS SUMMARY
NATIONAL WEATHER SERVICE MISSOULA MT
1143 PM MDT THU OCT 30 2014

Montana AWOS Reports

LAUREL      |K6S8 310535Z AUTO 34006KT 40SM 06/M04 A3014 RMK AO1 T00611038






000
SXUS55 KMSO 310523
OSOMSO
MONTANA AWOS SUMMARY
NATIONAL WEATHER SERVICE MISSOULA MT
1123 PM MDT THU OCT 30 2014

Montana AWOS Reports

ROUNDUP     |KRPX 310515Z AUTO 00000KT 40SM 04/M01 A3010 RMK AO1 T00391005
LAUREL      |K6S8 310515Z AUTO 34004KT 40SM 06/M04 A3015 RMK AO1 T00611038






000
SXUS55 KMSO 310504
OSOMSO
MONTANA AWOS SUMMARY
NATIONAL WEATHER SERVICE MISSOULA MT
1103 PM MDT THU OCT 30 2014

Montana AWOS Reports

ROUNDUP     |KRPX 310455Z AUTO 00000KT 40SM 04/M01 A3011 RMK AO1 T00391005
MALTA       |KM75 310455Z AUTO 00000KT 25SM 02/M01 A3024 RMK AO1 T00221010
PLAINS      |KS34 310455Z AUTO 00000KT 10SM 06/03 A2999 RMK AO1 T00610033
TWIN BRIDGES|K7S1 310455Z AUTO 00000KT 40SM 03/M02 A3009 RMK AO1 T00281021
LAUREL      |K6S8 310455Z AUTO 36006KT 40SM 07/M04 A3015 RMK AO1 T00671038
SCOBEY      |K9S2 310455Z AUTO 12012G18KT 7SM 01/M03 A3036 RMK AO1 T00111032






000
SXUS55 KMSO 310453
OSOMSO
MONTANA AWOS SUMMARY
NATIONAL WEATHER SERVICE MISSOULA MT
1052 PM MDT THU OCT 30 2014

Montana AWOS Reports

LAUREL      |K6S8 310435Z AUTO 34006KT 40SM 07/M04 A3016 RMK AO1 T00671038






000
SXUS55 KMSO 310453
OSOMSO
MONTANA AWOS SUMMARY
NATIONAL WEATHER SERVICE MISSOULA MT
1052 PM MDT THU OCT 30 2014

Montana AWOS Reports

LAUREL      |K6S8 310435Z AUTO 34006KT 40SM 07/M04 A3016 RMK AO1 T00671038






000
SXUS55 KMSO 310443
OSOMSO
MONTANA AWOS SUMMARY
NATIONAL WEATHER SERVICE MISSOULA MT
1043 PM MDT THU OCT 30 2014

Montana AWOS Reports

ROUNDUP     |KRPX 310435Z AUTO 00000KT 40SM 04/M01 A3012 RMK AO1 T00391010






000
SXUS55 KMSO 310423
OSOMSO
MONTANA AWOS SUMMARY
NATIONAL WEATHER SERVICE MISSOULA MT
1023 PM MDT THU OCT 30 2014

Montana AWOS Reports

ROUNDUP     |KRPX 310415Z AUTO 04005KT 40SM 04/M01 A3012 RMK AO1 T00441005
LAUREL      |K6S8 310415Z AUTO 34004KT 40SM 07/M03 A3017 RMK AO1 T00721032






000
SXUS55 KMSO 310013
OSOMSO
MONTANA AWOS SUMMARY
NATIONAL WEATHER SERVICE MISSOULA MT
612 PM MDT THU OCT 30 2014

Montana AWOS Reports

PLAINS      |KS34 302355Z AUTO 00000KT 40SM 10/04 A3008 RMK AO1 T01000044
TWIN BRIDGES|K7S1 302355Z AUTO 34006KT 15SM 09/M01 A3014 RMK AO1 T00941010
MALTA       |KM75 302355Z AUTO 08010G14KT 25SM 04/M01 A3029 RMK AO1 T00391005
SCOBEY      |K9S2 302355Z AUTO 12009G14KT 15SM 01/M04 A3039 RMK AO1 T00061038






000
SXUS55 KMSO 310004
OSOMSO
MONTANA AWOS SUMMARY
NATIONAL WEATHER SERVICE MISSOULA MT
603 PM MDT THU OCT 30 2014

Montana AWOS Reports

ROUNDUP     |KRPX 302355Z AUTO 00000KT 40SM 12/M02 A3016 RMK AO1 T01171016
LAUREL      |K6S8 302355Z AUTO 00000KT 25SM 13/M02 A3022 RMK AO1 T01281021






000
SXUS55 KMSO 302343
OSOMSO
MONTANA AWOS SUMMARY
NATIONAL WEATHER SERVICE MISSOULA MT
543 PM MDT THU OCT 30 2014

Montana AWOS Reports

ROUNDUP     |KRPX 302335Z AUTO 00000KT 40SM 13/M01 A3016 RMK AO1 T01331010
LAUREL      |K6S8 302335Z AUTO 04004KT 40SM 14/M02 A3023 RMK AO1 T01391021






000
SXUS55 KMSO 302323
OSOMSO
MONTANA AWOS SUMMARY
NATIONAL WEATHER SERVICE MISSOULA MT
523 PM MDT THU OCT 30 2014

Montana AWOS Reports

LAUREL      |K6S8 302315Z AUTO 06007KT 40SM 15/M01 A3023 RMK AO1 T01501010
ROUNDUP     |KRPX 302315Z AUTO 11004KT 40SM 14/M02 A3016 RMK AO1 T01391016






000
SXUS55 KMSO 302314
OSOMSO
MONTANA AWOS SUMMARY
NATIONAL WEATHER SERVICE MISSOULA MT
513 PM MDT THU OCT 30 2014

Montana AWOS Reports

PLAINS      |KS34 302255Z AUTO 00000KT 25SM 12/06 A3010 RMK AO1 T01170056
SCOBEY      |K9S2 302255Z AUTO 09009KT 15SM 01/M04 A3038 RMK AO1 T00111038
MALTA       |KM75 302255Z AUTO 08008KT 40SM 04/00 A3030 RMK AO1 T00440000






000
SXUS55 KMSO 302303
OSOMSO
MONTANA AWOS SUMMARY
NATIONAL WEATHER SERVICE MISSOULA MT
503 PM MDT THU OCT 30 2014

Montana AWOS Reports

ROUNDUP     |KRPX 302255Z AUTO 10005KT 40SM 14/M01 A3016 RMK AO1 T01441010
LAUREL      |K6S8 302255Z AUTO 06006KT 40SM 15/M02 A3023 RMK AO1 T01501016






000
SXUS55 KMSO 302253
OSOMSO
MONTANA AWOS SUMMARY
NATIONAL WEATHER SERVICE MISSOULA MT
453 PM MDT THU OCT 30 2014

Montana AWOS Reports

MALTA       |KM75 302155Z AUTO 08009KT 40SM 05/00 A3030 RMK AO1 T00500000






000
SXUS55 KMSO 302244
OSOMSO
MONTANA AWOS SUMMARY
NATIONAL WEATHER SERVICE MISSOULA MT
443 PM MDT THU OCT 30 2014

Montana AWOS Reports

LAUREL      |K6S8 302235Z AUTO 06008KT 40SM 16/M01 A3022 RMK AO1 T01561010
ROUNDUP     |KRPX 302235Z AUTO 00000KT 40SM 14/M02 A3016 RMK AO1 T01441016






000
SXUS55 KMSO 302233
OSOMSO
MONTANA AWOS SUMMARY
NATIONAL WEATHER SERVICE MISSOULA MT
433 PM MDT THU OCT 30 2014

Montana AWOS Reports

SCOBEY      |K9S2 302155Z AUTO 11008KT 15SM 01/M04 A3039 RMK AO1 T00111038






000
SXUS55 KMSO 302223
OSOMSO
MONTANA AWOS SUMMARY
NATIONAL WEATHER SERVICE MISSOULA MT
423 PM MDT THU OCT 30 2014

Montana AWOS Reports

ROUNDUP     |KRPX 302215Z AUTO 00000KT 40SM 15/M01 A3017 RMK AO1 T01501010
LAUREL      |K6S8 302215Z AUTO 06005KT 40SM 16/M02 A3022 RMK AO1 T01561016






000
SXUS55 KMSO 302213
OSOMSO
MONTANA AWOS SUMMARY
NATIONAL WEATHER SERVICE MISSOULA MT
413 PM MDT THU OCT 30 2014

Montana AWOS Reports

LAUREL      |K6S8 302155Z AUTO 06007KT 40SM 16/M01 A3023 RMK AO1 T01611010






000
SXUS55 KMSO 302213
OSOMSO
MONTANA AWOS SUMMARY
NATIONAL WEATHER SERVICE MISSOULA MT
413 PM MDT THU OCT 30 2014

Montana AWOS Reports

LAUREL      |K6S8 302155Z AUTO 06007KT 40SM 16/M01 A3023 RMK AO1 T01611010






000
SXUS55 KMSO 302203
OSOMSO
MONTANA AWOS SUMMARY
NATIONAL WEATHER SERVICE MISSOULA MT
402 PM MDT THU OCT 30 2014

Montana AWOS Reports

ROUNDUP     |KRPX 302155Z AUTO 10005KT 40SM 15/M01 A3017 RMK AO1 T01501010






000
SXUS55 KMSO 302203
OSOMSO
MONTANA AWOS SUMMARY
NATIONAL WEATHER SERVICE MISSOULA MT
402 PM MDT THU OCT 30 2014

Montana AWOS Reports

ROUNDUP     |KRPX 302155Z AUTO 10005KT 40SM 15/M01 A3017 RMK AO1 T01501010






000
SXUS55 KMSO 302144
OSOMSO
MONTANA AWOS SUMMARY
NATIONAL WEATHER SERVICE MISSOULA MT
343 PM MDT THU OCT 30 2014

Montana AWOS Reports

ROUNDUP     |KRPX 302135Z AUTO 06005KT 40SM 15/M01 A3017 RMK AO1 T01501005
LAUREL      |K6S8 302135Z AUTO 03005KT 40SM 15/M01 A3023 RMK AO1 T01501010






000
SXUS55 KMSO 302144
OSOMSO
MONTANA AWOS SUMMARY
NATIONAL WEATHER SERVICE MISSOULA MT
343 PM MDT THU OCT 30 2014

Montana AWOS Reports

ROUNDUP     |KRPX 302135Z AUTO 06005KT 40SM 15/M01 A3017 RMK AO1 T01501005
LAUREL      |K6S8 302135Z AUTO 03005KT 40SM 15/M01 A3023 RMK AO1 T01501010






000
SXUS55 KMSO 302123
OSOMSO
MONTANA AWOS SUMMARY
NATIONAL WEATHER SERVICE MISSOULA MT
323 PM MDT THU OCT 30 2014

Montana AWOS Reports

ROUNDUP     |KRPX 302115Z AUTO 00000KT 40SM 15/M01 A3017 RMK AO1 T01501010
LAUREL      |K6S8 302115Z AUTO 03006KT 40SM 16/M02 A3024 RMK AO1 T01561016






000
SXUS55 KMSO 302113
OSOMSO
MONTANA AWOS SUMMARY
NATIONAL WEATHER SERVICE MISSOULA MT
313 PM MDT THU OCT 30 2014

Montana AWOS Reports

LAUREL      |K6S8 302055Z AUTO 04004KT 40SM 16/M02 A3024 RMK AO1 T01561016
PLAINS      |KS34 302055Z AUTO 00000KT 25SM 10/06 A3013 RMK AO1 T01000056
SCOBEY      |K9S2 302055Z AUTO 07008KT 15SM 01/M04 A3038 RMK AO1 T00111038
MALTA       |KM75 302055Z AUTO 10008KT 40SM 04/00 A3031 RMK AO1 T00440000






000
SXUS55 KMSO 302103
OSOMSO
MONTANA AWOS SUMMARY
NATIONAL WEATHER SERVICE MISSOULA MT
302 PM MDT THU OCT 30 2014

Montana AWOS Reports

ROUNDUP     |KRPX 302055Z AUTO 00000KT 40SM 15/M01 A3017 RMK AO1 T01501010
TWIN BRIDGES|K7S1 302055Z AUTO 00000KT 40SM 12/M03 A3018 RMK AO1 T01171027






000
SXUS55 KMSO 302043
OSOMSO
MONTANA AWOS SUMMARY
NATIONAL WEATHER SERVICE MISSOULA MT
243 PM MDT THU OCT 30 2014

Montana AWOS Reports

LAUREL      |K6S8 302035Z AUTO 00000KT 40SM 15/M02 A3024 RMK AO1 T01501016






000
SXUS55 KMSO 302023
OSOMSO
MONTANA AWOS SUMMARY
NATIONAL WEATHER SERVICE MISSOULA MT
223 PM MDT THU OCT 30 2014

Montana AWOS Reports

ROUNDUP     |KRPX 302015Z AUTO 00000KT 40SM 14/M01 A3018 RMK AO1 T01441005
LAUREL      |K6S8 302015Z AUTO 00000KT 40SM 14/M02 A3025 RMK AO1 T01441016






000
SXUS55 KMSO 302004
OSOMSO
MONTANA AWOS SUMMARY
NATIONAL WEATHER SERVICE MISSOULA MT
203 PM MDT THU OCT 30 2014

Montana AWOS Reports

ROUNDUP     |KRPX 301955Z AUTO 00000KT 40SM 14/M01 A3018 RMK AO1 T01441010
SCOBEY      |K9S2 301955Z AUTO 07007KT 25SM 01/M04 A3038 RMK AO1 T00111038
PLAINS      |KS34 301955Z AUTO 00000KT 25SM 09/05 A3017 RMK AO1 T00890050
LAUREL      |K6S8 301955Z AUTO 00000KT 40SM 14/M02 A3025 RMK AO1 T01391021
MALTA       |KM75 301955Z AUTO 06005KT 40SM 04/00 A3032 RMK AO1 T00390000
TWIN BRIDGES|K7S1 301955Z AUTO 00000KT 40SM 11/M02 A3020 RMK AO1 T01111016






000
SXUS55 KMSO 301943
OSOMSO
MONTANA AWOS SUMMARY
NATIONAL WEATHER SERVICE MISSOULA MT
143 PM MDT THU OCT 30 2014

Montana AWOS Reports

ROUNDUP     |KRPX 301935Z AUTO 00000KT 40SM 14/M01 A3019 RMK AO1 T01391010
LAUREL      |K6S8 301935Z AUTO 00000KT 40SM 14/M02 A3026 RMK AO1 T01391021






000
SXUS55 KMSO 301923
OSOMSO
MONTANA AWOS SUMMARY
NATIONAL WEATHER SERVICE MISSOULA MT
123 PM MDT THU OCT 30 2014

Montana AWOS Reports

ROUNDUP     |KRPX 301915Z AUTO 00000KT 40SM 14/M02 A3019 RMK AO1 T01391016
LAUREL      |K6S8 301915Z AUTO 00000KT 40SM 14/M02 A3026 RMK AO1 T01391021






000
SXUS55 KMSO 301904
OSOMSO
MONTANA AWOS SUMMARY
NATIONAL WEATHER SERVICE MISSOULA MT
104 PM MDT THU OCT 30 2014

Montana AWOS Reports

LAUREL      |K6S8 301855Z AUTO 00000KT 40SM 14/M02 A3026 RMK AO1 T01391016
SCOBEY      |K9S2 301855Z AUTO 08006KT 25SM 01/M04 A3038 RMK AO1 T00111038
MALTA       |KM75 301855Z AUTO 09008KT 25SM 03/M01 A3033 RMK AO1 T00281005
PLAINS      |KS34 301855Z AUTO 00000KT 25SM 08/06 A3019 RMK AO1 T00830056
TWIN BRIDGES|K7S1 301855Z AUTO 00000KT 25SM 10/M01 A3022 RMK AO1 T01001010






000
SXUS55 KMSO 301803
OSOMSO
MONTANA AWOS SUMMARY
NATIONAL WEATHER SERVICE MISSOULA MT
1203 PM MDT THU OCT 30 2014

Montana AWOS Reports

ROUNDUP     |KRPX 301755Z AUTO 21004KT 40SM 11/M01 A3021 RMK AO1 T01111005
SCOBEY      |K9S2 301755Z AUTO 04005KT 15SM 01/M04 A3038 RMK AO1 T00061038
PLAINS      |KS34 301755Z AUTO 00000KT 15SM 08/06 A3021 RMK AO1 T00780056
TWIN BRIDGES|K7S1 301755Z AUTO 15004KT 40SM 08/00 A3024 RMK AO1 T00830000
LAUREL      |K6S8 301755Z AUTO 00000KT 40SM 12/M03 A3027 RMK AO1 T01221027
MALTA       |KM75 301755Z AUTO 05005KT 25SM 02/M01 A3033 RMK AO1 T00221010






000
SXUS55 KMSO 301743
OSOMSO
MONTANA AWOS SUMMARY
NATIONAL WEATHER SERVICE MISSOULA MT
1143 AM MDT THU OCT 30 2014

Montana AWOS Reports

ROUNDUP     |KRPX 301735Z AUTO 00000KT 40SM 10/M01 A3021 RMK AO1 T01001010
LAUREL      |K6S8 301735Z AUTO 00000KT 40SM 11/M03 A3028 RMK AO1 T01111027






000
SXUS55 KMSO 301743
OSOMSO
MONTANA AWOS SUMMARY
NATIONAL WEATHER SERVICE MISSOULA MT
1143 AM MDT THU OCT 30 2014

Montana AWOS Reports

ROUNDUP     |KRPX 301735Z AUTO 00000KT 40SM 10/M01 A3021 RMK AO1 T01001010
LAUREL      |K6S8 301735Z AUTO 00000KT 40SM 11/M03 A3028 RMK AO1 T01111027






000
SXUS55 KMSO 301723
OSOMSO
MONTANA AWOS SUMMARY
NATIONAL WEATHER SERVICE MISSOULA MT
1123 AM MDT THU OCT 30 2014

Montana AWOS Reports

ROUNDUP     |KRPX 301715Z AUTO 00000KT 40SM 09/M01 A3021 RMK AO1 T00891010
LAUREL      |K6S8 301715Z AUTO 00000KT 40SM 10/M02 A3028 RMK AO1 T01001021






000
SXUS55 KMSO 301703
OSOMSO
MONTANA AWOS SUMMARY
NATIONAL WEATHER SERVICE MISSOULA MT
1103 AM MDT THU OCT 30 2014

Montana AWOS Reports

LAUREL      |K6S8 301655Z AUTO 00000KT 40SM 09/M03 A3028 RMK AO1 T00891027
PLAINS      |KS34 301655Z AUTO 25SM 07/06 A3022 RMK AO1 T00720056
MALTA       |KM75 301655Z AUTO 06006KT 15SM 02/M01 A3032 RMK AO1 T00171010






000
SXUS55 KMSO 301703
OSOMSO
MONTANA AWOS SUMMARY
NATIONAL WEATHER SERVICE MISSOULA MT
1103 AM MDT THU OCT 30 2014

Montana AWOS Reports

LAUREL      |K6S8 301655Z AUTO 00000KT 40SM 09/M03 A3028 RMK AO1 T00891027
PLAINS      |KS34 301655Z AUTO 25SM 07/06 A3022 RMK AO1 T00720056
MALTA       |KM75 301655Z AUTO 06006KT 15SM 02/M01 A3032 RMK AO1 T00171010






000
SXUS55 KMSO 301653
OSOMSO
MONTANA AWOS SUMMARY
NATIONAL WEATHER SERVICE MISSOULA MT
1053 AM MDT THU OCT 30 2014

Montana AWOS Reports

LAUREL      |K6S8 301635Z AUTO 00000KT 40SM 08/M03 A3028 RMK AO1 T00831032






000
SXUS55 KMSO 301653
OSOMSO
MONTANA AWOS SUMMARY
NATIONAL WEATHER SERVICE MISSOULA MT
1053 AM MDT THU OCT 30 2014

Montana AWOS Reports

LAUREL      |K6S8 301635Z AUTO 00000KT 40SM 08/M03 A3028 RMK AO1 T00831032






000
SXUS55 KMSO 301643
OSOMSO
MONTANA AWOS SUMMARY
NATIONAL WEATHER SERVICE MISSOULA MT
1043 AM MDT THU OCT 30 2014

Montana AWOS Reports

ROUNDUP     |KRPX 301635Z AUTO 00000KT 40SM 07/M02 A3021 RMK AO1 T00671016






000
SXUS55 KMSO 301643
OSOMSO
MONTANA AWOS SUMMARY
NATIONAL WEATHER SERVICE MISSOULA MT
1043 AM MDT THU OCT 30 2014

Montana AWOS Reports

ROUNDUP     |KRPX 301635Z AUTO 00000KT 40SM 07/M02 A3021 RMK AO1 T00671016






000
SXUS55 KMSO 301623
OSOMSO
MONTANA AWOS SUMMARY
NATIONAL WEATHER SERVICE MISSOULA MT
1022 AM MDT THU OCT 30 2014

Montana AWOS Reports

ROUNDUP     |KRPX 301615Z AUTO 00000KT 40SM 06/M02 A3021 RMK AO1 T00561016
LAUREL      |K6S8 301615Z AUTO 00000KT 40SM 08/M02 A3028 RMK AO1 T00781021






000
SXUS55 KMSO 301623
OSOMSO
MONTANA AWOS SUMMARY
NATIONAL WEATHER SERVICE MISSOULA MT
1022 AM MDT THU OCT 30 2014

Montana AWOS Reports

ROUNDUP     |KRPX 301615Z AUTO 00000KT 40SM 06/M02 A3021 RMK AO1 T00561016
LAUREL      |K6S8 301615Z AUTO 00000KT 40SM 08/M02 A3028 RMK AO1 T00781021






000
SXUS55 KMSO 301603
OSOMSO
MONTANA AWOS SUMMARY
NATIONAL WEATHER SERVICE MISSOULA MT
1003 AM MDT THU OCT 30 2014

Montana AWOS Reports

ROUNDUP     |KRPX 301555Z AUTO 21006KT 40SM 04/M03 A3020 RMK AO1 T00391027
PLAINS      |KS34 301555Z AUTO 25SM 07/05 A3023 RMK AO1 T00670050
TWIN BRIDGES|K7S1 301555Z AUTO 00000KT 40SM 03/M01 A3025 RMK AO1 T00331005
LAUREL      |K6S8 301555Z AUTO 00000KT 40SM 06/M04 A3027 RMK AO1 T00611038
SCOBEY      |K9S2 301555Z AUTO 02006KT 10SM 00/M03 A3034 RMK AO1 T00001032
MALTA       |KM75 301555Z AUTO 06005KT 15SM 01/M01 A3032 RMK AO1 T00111010






000
SXUS55 KMSO 301553
OSOMSO
MONTANA AWOS SUMMARY
NATIONAL WEATHER SERVICE MISSOULA MT
953 AM MDT THU OCT 30 2014

Montana AWOS Reports

LAUREL      |K6S8 301535Z AUTO 00000KT 40SM 04/M04 A3027 RMK AO1 T00441038






000
SXUS55 KMSO 301543
OSOMSO
MONTANA AWOS SUMMARY
NATIONAL WEATHER SERVICE MISSOULA MT
943 AM MDT THU OCT 30 2014

Montana AWOS Reports

ROUNDUP     |KRPX 301535Z AUTO 00000KT 40SM 03/M03 A3021 RMK AO1 T00331032






000
SXUS55 KMSO 301523
OSOMSO
MONTANA AWOS SUMMARY
NATIONAL WEATHER SERVICE MISSOULA MT
923 AM MDT THU OCT 30 2014

Montana AWOS Reports

LAUREL      |K6S8 301515Z AUTO 00000KT 40SM 03/M04 A3027 RMK AO1 T00281038
ROUNDUP     |KRPX 301515Z AUTO 21005KT 40SM 02/M03 A3020 RMK AO1 T00221027






000
SXUS55 KMSO 301503
OSOMSO
MONTANA AWOS SUMMARY
NATIONAL WEATHER SERVICE MISSOULA MT
903 AM MDT THU OCT 30 2014

Montana AWOS Reports

LAUREL      |K6S8 301455Z AUTO 00000KT 40SM 01/M05 A3026 RMK AO1 T00111049
SCOBEY      |K9S2 301455Z AUTO 02006KT 10SM 00/M03 A3031 RMK AO1 T00001032
MALTA       |KM75 301455Z AUTO 04006KT 10SM 01/M02 A3029 RMK AO1 T00061016






000
SXUS55 KMSO 301453
OSOMSO
MONTANA AWOS SUMMARY
NATIONAL WEATHER SERVICE MISSOULA MT
853 AM MDT THU OCT 30 2014

Montana AWOS Reports

LAUREL      |K6S8 301435Z AUTO 22005KT 40SM 00/M06 A3026 RMK AO1 T00001055






000
SXUS55 KMSO 301443
OSOMSO
MONTANA AWOS SUMMARY
NATIONAL WEATHER SERVICE MISSOULA MT
842 AM MDT THU OCT 30 2014

Montana AWOS Reports

ROUNDUP     |KRPX 301435Z AUTO 00000KT 40SM 01/M03 A3019 RMK AO1 T00061032






000
SXUS55 KMSO 301423
OSOMSO
MONTANA AWOS SUMMARY
NATIONAL WEATHER SERVICE MISSOULA MT
823 AM MDT THU OCT 30 2014

Montana AWOS Reports

ROUNDUP     |KRPX 301415Z AUTO 00000KT 40SM M01/M04 A3018 RMK AO1 T10051043
LAUREL      |K6S8 301415Z AUTO 23005KT 40SM M02/M06 A3025 RMK AO1 T10161060






000
SXUS55 KMSO 301413
OSOMSO
MONTANA AWOS SUMMARY
NATIONAL WEATHER SERVICE MISSOULA MT
813 AM MDT THU OCT 30 2014

Montana AWOS Reports

MALTA       |KM75 301355Z AUTO 04006KT 7SM 01/M02 A3028 RMK AO1 T00061016






000
SXUS55 KMSO 301403
OSOMSO
MONTANA AWOS SUMMARY
NATIONAL WEATHER SERVICE MISSOULA MT
803 AM MDT THU OCT 30 2014

Montana AWOS Reports

ROUNDUP     |KRPX 301355Z AUTO 21008KT 5SM 00/M04 A3017 RMK AO1 T00001038
SCOBEY      |K9S2 301355Z AUTO 34006KT 3 1/2SM M01/M03 A3028 RMK AO1 T10051032
PLAINS      |KS34 301355Z AUTO 25SM 06/04 A3022 RMK AO1 T00610044
TWIN BRIDGES|K7S1 301355Z AUTO 00000KT 40SM 03/M02 A3024 RMK AO1 T00281021
LAUREL      |K6S8 301355Z AUTO 00000KT 40SM M02/M07 A3025 RMK AO1 T10161066






000
SXUS55 KMSO 301343
OSOMSO
MONTANA AWOS SUMMARY
NATIONAL WEATHER SERVICE MISSOULA MT
742 AM MDT THU OCT 30 2014

Montana AWOS Reports

ROUNDUP     |KRPX 301335Z AUTO 00000KT 1 1/4SM M01/M04 A3017 RMK AO1 T10051043
LAUREL      |K6S8 301335Z AUTO 21005KT 40SM 00/M06 A3024 RMK AO1 T00001055






000
SXUS55 KMSO 301323
OSOMSO
MONTANA AWOS SUMMARY
NATIONAL WEATHER SERVICE MISSOULA MT
723 AM MDT THU OCT 30 2014

Montana AWOS Reports

ROUNDUP     |KRPX 301315Z AUTO 00000KT 2SM 00/M04 A3016 RMK AO1 T00001038
LAUREL      |K6S8 301315Z AUTO 00000KT 40SM 01/M05 A3024 RMK AO1 T00111049






000
SXUS55 KMSO 301303
OSOMSO
MONTANA AWOS SUMMARY
NATIONAL WEATHER SERVICE MISSOULA MT
703 AM MDT THU OCT 30 2014

Montana AWOS Reports

LAUREL      |K6S8 301255Z AUTO 00000KT 40SM 02/M04 A3024 RMK AO1 T00171043
MALTA       |KM75 301255Z AUTO 02005KT 5SM 00/M02 A3025 RMK AO1 T00001021
PLAINS      |KS34 301255Z AUTO 00000KT 15SM 06/04 A3023 RMK AO1 T00610044
TWIN BRIDGES|K7S1 301255Z AUTO 00000KT 40SM 02/M03 A3023 RMK AO1 T00171027






000
SXUS55 KMSO 301243
OSOMSO
MONTANA AWOS SUMMARY
NATIONAL WEATHER SERVICE MISSOULA MT
643 AM MDT THU OCT 30 2014

Montana AWOS Reports

LAUREL      |K6S8 301235Z AUTO 00000KT 40SM 01/M05 A3024 RMK AO1 T00111049






000
SXUS55 KMSO 301223
OSOMSO
MONTANA AWOS SUMMARY
NATIONAL WEATHER SERVICE MISSOULA MT
623 AM MDT THU OCT 30 2014

Montana AWOS Reports

ROUNDUP     |KRPX 301215Z AUTO 00000KT 40SM 01/M04 A3016 RMK AO1 T00061043
LAUREL      |K6S8 301215Z AUTO 27004KT 40SM 01/M05 A3023 RMK AO1 T00061049






000
SXUS55 KMSO 301213
OSOMSO
MONTANA AWOS SUMMARY
NATIONAL WEATHER SERVICE MISSOULA MT
613 AM MDT THU OCT 30 2014

Montana AWOS Reports

MALTA       |KM75 301155Z AUTO 04007KT 7SM 01/M02 A3024 RMK AO1 T00061016






000
SXUS55 KMSO 301203
OSOMSO
MONTANA AWOS SUMMARY
NATIONAL WEATHER SERVICE MISSOULA MT
603 AM MDT THU OCT 30 2014

Montana AWOS Reports

ROUNDUP     |KRPX 301155Z AUTO 00000KT 7SM 00/M04 A3016 RMK AO1 T00001043
LAUREL      |K6S8 301155Z AUTO 00000KT 40SM 02/M04 A3023 RMK AO1 T00171043
TWIN BRIDGES|K7S1 301155Z AUTO 00000KT 40SM 01/M03 A3024 RMK AO1 T00111027
PLAINS      |KS34 301155Z AUTO 00000KT 10SM 06/04 A3023 RMK AO1 T00610044
SCOBEY      |K9S2 301155Z AUTO 35008KT 7SM 00/M03 A3024 RMK AO1 T00001032






000
SXUS55 KMSO 301143
OSOMSO
MONTANA AWOS SUMMARY
NATIONAL WEATHER SERVICE MISSOULA MT
543 AM MDT THU OCT 30 2014

Montana AWOS Reports

ROUNDUP     |KRPX 301135Z AUTO 00000KT 5SM 01/M04 A3016 RMK AO1 T00111038
LAUREL      |K6S8 301135Z AUTO 00000KT 40SM 02/M04 A3023 RMK AO1 T00171043






000
SXUS55 KMSO 301123
OSOMSO
MONTANA AWOS SUMMARY
NATIONAL WEATHER SERVICE MISSOULA MT
523 AM MDT THU OCT 30 2014

Montana AWOS Reports

LAUREL      |K6S8 301115Z AUTO 00000KT 40SM 02/M04 A3023 RMK AO1 T00171043
ROUNDUP     |KRPX 301115Z AUTO 20006KT 3 1/2SM 02/M03 A3015 RMK AO1 T00171032






000
SXUS55 KMSO 301104
OSOMSO
MONTANA AWOS SUMMARY
NATIONAL WEATHER SERVICE MISSOULA MT
503 AM MDT THU OCT 30 2014

Montana AWOS Reports

LAUREL      |K6S8 301055Z AUTO 23006KT 40SM 02/M04 A3023 RMK AO1 T00221038
MALTA       |KM75 301055Z AUTO 03008KT 3 1/2SM 01/M02 A3021 RMK AO1 T00061016
SCOBEY      |K9S2 301055Z AUTO 35007KT 7SM 01/M03 A3022 RMK AO1 T00061032






000
SXUS55 KMSO 301053
OSOMSO
MONTANA AWOS SUMMARY
NATIONAL WEATHER SERVICE MISSOULA MT
452 AM MDT THU OCT 30 2014

Montana AWOS Reports

LAUREL      |K6S8 301035Z AUTO 22004KT 40SM 02/M04 A3023 RMK AO1 T00221043






000
SXUS55 KMSO 301053
OSOMSO
MONTANA AWOS SUMMARY
NATIONAL WEATHER SERVICE MISSOULA MT
452 AM MDT THU OCT 30 2014

Montana AWOS Reports

LAUREL      |K6S8 301035Z AUTO 22004KT 40SM 02/M04 A3023 RMK AO1 T00221043






000
SXUS55 KMSO 301043
OSOMSO
MONTANA AWOS SUMMARY
NATIONAL WEATHER SERVICE MISSOULA MT
443 AM MDT THU OCT 30 2014

Montana AWOS Reports

ROUNDUP     |KRPX 301035Z AUTO 21006KT 3SM 02/M03 A3014 RMK AO1 T00221032






000
SXUS55 KMSO 301043
OSOMSO
MONTANA AWOS SUMMARY
NATIONAL WEATHER SERVICE MISSOULA MT
443 AM MDT THU OCT 30 2014

Montana AWOS Reports

ROUNDUP     |KRPX 301035Z AUTO 21006KT 3SM 02/M03 A3014 RMK AO1 T00221032






000
SXUS55 KMSO 301023
OSOMSO
MONTANA AWOS SUMMARY
NATIONAL WEATHER SERVICE MISSOULA MT
423 AM MDT THU OCT 30 2014

Montana AWOS Reports

ROUNDUP     |KRPX 301015Z AUTO 00000KT 2SM 03/M03 A3014 RMK AO1 T00281032
LAUREL      |K6S8 301015Z AUTO 25004KT 40SM 02/M05 A3022 RMK AO1 T00171049






000
SXUS55 KMSO 301004
OSOMSO
MONTANA AWOS SUMMARY
NATIONAL WEATHER SERVICE MISSOULA MT
403 AM MDT THU OCT 30 2014

Montana AWOS Reports

LAUREL      |K6S8 300955Z AUTO 00000KT 40SM 02/M04 A3022 RMK AO1 T00221043
ROUNDUP     |KRPX 300955Z AUTO 21004KT 40SM 04/M02 A3014 RMK AO1 T00391021
SCOBEY      |K9S2 300955Z AUTO 33011KT 7SM 01/M03 A3019 RMK AO1 T00111027
MALTA       |KM75 300955Z AUTO 00000KT 1 1/2SM M01/M03 A3019 RMK AO1 T10101032
PLAINS      |KS34 300955Z AUTO 00000KT 5SM 06/04 A3024 RMK AO1 T00610044
TWIN BRIDGES|K7S1 300955Z AUTO 00000KT 40SM 01/M04 A3025 RMK AO1 T00061043






000
SXUS55 KMSO 300943
OSOMSO
MONTANA AWOS SUMMARY
NATIONAL WEATHER SERVICE MISSOULA MT
343 AM MDT THU OCT 30 2014

Montana AWOS Reports

LAUREL      |K6S8 300935Z AUTO 00000KT 40SM 02/M05 A3022 RMK AO1 T00171049
ROUNDUP     |KRPX 300935Z AUTO 20009KT 40SM 04/M02 A3013 RMK AO1 T00391021






000
SXUS55 KMSO 300923
OSOMSO
MONTANA AWOS SUMMARY
NATIONAL WEATHER SERVICE MISSOULA MT
323 AM MDT THU OCT 30 2014

Montana AWOS Reports

MALTA       |KM75 300855Z AUTO 00000KT 15SM M02/M04 A3018 RMK AO1 T10161043
LAUREL      |K6S8 300915Z AUTO 26004KT 40SM 03/M04 A3021 RMK AO1 T00281043
ROUNDUP     |KRPX 300915Z AUTO 20010KT 40SM 04/M02 A3013 RMK AO1 T00391021






000
SXUS55 KMSO 300913
OSOMSO
MONTANA AWOS SUMMARY
NATIONAL WEATHER SERVICE MISSOULA MT
313 AM MDT THU OCT 30 2014

Montana AWOS Reports

LAUREL      |K6S8 300855Z AUTO 00000KT 40SM 03/M04 A3020 RMK AO1 T00331043






000
SXUS55 KMSO 300904
OSOMSO
MONTANA AWOS SUMMARY
NATIONAL WEATHER SERVICE MISSOULA MT
303 AM MDT THU OCT 30 2014

Montana AWOS Reports

ROUNDUP     |KRPX 300855Z AUTO 21008KT 40SM 03/M03 A3013 RMK AO1 T00331027
SCOBEY      |K9S2 300855Z AUTO 33008KT 10SM 02/M02 A3017 RMK AO1 T00221021
TWIN BRIDGES|K7S1 300855Z AUTO 00000KT 40SM 01/M04 A3023 RMK AO1 T00061038






000
SXUS55 KMSO 300843
OSOMSO
MONTANA AWOS SUMMARY
NATIONAL WEATHER SERVICE MISSOULA MT
243 AM MDT THU OCT 30 2014

Montana AWOS Reports

ROUNDUP     |KRPX 300835Z AUTO 00000KT 40SM 04/M03 A3012 RMK AO1 T00391027
LAUREL      |K6S8 300835Z AUTO 00000KT 40SM 02/M04 A3020 RMK AO1 T00221043






000
SXUS55 KMSO 300823
OSOMSO
MONTANA AWOS SUMMARY
NATIONAL WEATHER SERVICE MISSOULA MT
223 AM MDT THU OCT 30 2014

Montana AWOS Reports

ROUNDUP     |KRPX 300815Z AUTO 21006KT 40SM 04/M03 A3012 RMK AO1 T00441027
LAUREL      |K6S8 300815Z AUTO 00000KT 40SM 04/M03 A3020 RMK AO1 T00391032






000
SXUS55 KMSO 300813
OSOMSO
MONTANA AWOS SUMMARY
NATIONAL WEATHER SERVICE MISSOULA MT
212 AM MDT THU OCT 30 2014

Montana AWOS Reports

PLAINS      |KS34 300755Z AUTO 00000KT 15SM 06/04 A3025 RMK AO1 T00610039
SCOBEY      |K9S2 300755Z AUTO 34008KT 15SM 03/M02 A3014 RMK AO1 T00281021
MALTA       |KM75 300755Z AUTO 00000KT 40SM 01/M03 A3016 RMK AO1 T00061027






000
SXUS55 KMSO 300803
OSOMSO
MONTANA AWOS SUMMARY
NATIONAL WEATHER SERVICE MISSOULA MT
203 AM MDT THU OCT 30 2014

Montana AWOS Reports

LAUREL      |K6S8 300755Z AUTO 00000KT 40SM 05/M03 A3020 RMK AO1 T00501032
ROUNDUP     |KRPX 300755Z AUTO 00000KT 40SM 04/M03 A3012 RMK AO1 T00441027
TWIN BRIDGES|K7S1 300755Z AUTO 00000KT 40SM 02/M04 A3023 RMK AO1 T00171038






000
SXUS55 KMSO 300744
OSOMSO
MONTANA AWOS SUMMARY
NATIONAL WEATHER SERVICE MISSOULA MT
143 AM MDT THU OCT 30 2014

Montana AWOS Reports

LAUREL      |K6S8 300735Z AUTO 00000KT 40SM 06/M03 A3019 RMK AO1 T00561032






000
SXUS55 KMSO 300723
OSOMSO
MONTANA AWOS SUMMARY
NATIONAL WEATHER SERVICE MISSOULA MT
122 AM MDT THU OCT 30 2014

Montana AWOS Reports

ROUNDUP     |KRPX 300715Z AUTO 21004KT 40SM 05/M02 A3011 RMK AO1 T00501021
LAUREL      |K6S8 300715Z AUTO 00000KT 40SM 04/M04 A3019 RMK AO1 T00391038






000
SXUS55 KMSO 300713
OSOMSO
MONTANA AWOS SUMMARY
NATIONAL WEATHER SERVICE MISSOULA MT
113 AM MDT THU OCT 30 2014

Montana AWOS Reports

LAUREL      |K6S8 300655Z AUTO 00000KT 40SM 06/M06 A3019 RMK AO1 T00611055
ROUNDUP     |KRPX 300655Z AUTO 00000KT 40SM 05/M03 A3010 RMK AO1 T00501027
PLAINS      |KS34 300655Z AUTO 00000KT 3/4SM 06/04 A3025 RMK AO1 T00610039
TWIN BRIDGES|K7S1 300655Z AUTO 00000KT 40SM M01/M06 A3023 RMK AO1 T10101055
SCOBEY      |K9S2 300655Z AUTO 33012KT 10SM 03/M02 A3011 RMK AO1 T00281016
MALTA       |KM75 300655Z AUTO 00000KT 40SM M01/M04 A3013 RMK AO1 T10051038






000
SXUS55 KMSO 300644
OSOMSO
MONTANA AWOS SUMMARY
NATIONAL WEATHER SERVICE MISSOULA MT
1243 AM MDT THU OCT 30 2014

Montana AWOS Reports

ROUNDUP     |KRPX 300635Z AUTO 00000KT 40SM 05/M03 A3010 RMK AO1 T00501027
LAUREL      |K6S8 300635Z AUTO 00000KT 40SM 07/M06 A3019 RMK AO1 T00671055






000
SXUS55 KMSO 300623
OSOMSO
MONTANA AWOS SUMMARY
NATIONAL WEATHER SERVICE MISSOULA MT
1222 AM MDT THU OCT 30 2014

Montana AWOS Reports

LAUREL      |K6S8 300615Z AUTO 00000KT 40SM 08/M05 A3018 RMK AO1 T00781049
ROUNDUP     |KRPX 300615Z AUTO 00000KT 40SM 06/M03 A3010 RMK AO1 T00561032
ROUNDUP     |KRPX 300615Z AUTO 00000KT 40SM 06/M03 A3010 RMK AO1 T00561027






000
SXUS55 KMSO 300603
OSOMSO
MONTANA AWOS SUMMARY
NATIONAL WEATHER SERVICE MISSOULA MT
1203 AM MDT THU OCT 30 2014

Montana AWOS Reports

LAUREL      |K6S8 300555Z AUTO 00000KT 40SM 08/M05 A3018 RMK AO1 T00781049
ROUNDUP     |KRPX 300555Z AUTO 00000KT 40SM 06/M03 A3009 RMK AO1 T00611027
SCOBEY      |K9S2 300555Z AUTO 34013KT 15SM 03/M01 A3009 RMK AO1 T00281010
MALTA       |KM75 300555Z AUTO 00000KT 40SM 01/M03 A3011 RMK AO1 T00111032
PLAINS      |KS34 300555Z AUTO 00000KT 3/4SM 06/04 A3025 RMK AO1 T00610039
TWIN BRIDGES|K7S1 300555Z AUTO 00000KT 40SM 01/M04 A3022 RMK AO1 T00111043






000
SXUS55 KMSO 300543
OSOMSO
MONTANA AWOS SUMMARY
NATIONAL WEATHER SERVICE MISSOULA MT
1143 PM MDT WED OCT 29 2014

Montana AWOS Reports

LAUREL      |K6S8 300535Z AUTO 00000KT 40SM 08/M05 A3018 RMK AO1 T00781049
ROUNDUP     |KRPX 300535Z AUTO 00000KT 40SM 06/M03 A3009 RMK AO1 T00611032






000
SXUS55 KMSO 300524
OSOMSO
MONTANA AWOS SUMMARY
NATIONAL WEATHER SERVICE MISSOULA MT
1123 PM MDT WED OCT 29 2014

Montana AWOS Reports

LAUREL      |K6S8 300515Z AUTO 00000KT 40SM 08/M05 A3017 RMK AO1 T00781049






000
SXUS55 KMSO 300503
OSOMSO
MONTANA AWOS SUMMARY
NATIONAL WEATHER SERVICE MISSOULA MT
1103 PM MDT WED OCT 29 2014

Montana AWOS Reports

LAUREL      |K6S8 300455Z AUTO 00000KT 40SM 09/M03 A3017 RMK AO1 T00891027
ROUNDUP     |KRPX 300455Z AUTO 00000KT 40SM 07/M03 A3008 RMK AO1 T00671032
TWIN BRIDGES|K7S1 300455Z AUTO 00000KT 40SM 00/M06 A3021 RMK AO1 T00001055
SCOBEY      |K9S2 300455Z AUTO 31008KT 15SM 01/M02 A3007 RMK AO1 T00111021
MALTA       |KM75 300455Z AUTO 00000KT 40SM 03/M02 A3009 RMK AO1 T00331016
PLAINS      |KS34 300455Z AUTO 00000KT 2 1/2SM 07/04 A3024 RMK AO1 T00670044






000
SXUS55 KMSO 300453
OSOMSO
MONTANA AWOS SUMMARY
NATIONAL WEATHER SERVICE MISSOULA MT
1052 PM MDT WED OCT 29 2014

Montana AWOS Reports

LAUREL      |K6S8 300435Z AUTO 30005KT 40SM 09/M03 A3016 RMK AO1 T00891032






000
SXUS55 KMSO 300453
OSOMSO
MONTANA AWOS SUMMARY
NATIONAL WEATHER SERVICE MISSOULA MT
1052 PM MDT WED OCT 29 2014

Montana AWOS Reports

LAUREL      |K6S8 300435Z AUTO 30005KT 40SM 09/M03 A3016 RMK AO1 T00891032






000
SXUS55 KMSO 300443
OSOMSO
MONTANA AWOS SUMMARY
NATIONAL WEATHER SERVICE MISSOULA MT
1043 PM MDT WED OCT 29 2014

Montana AWOS Reports

ROUNDUP     |KRPX 300435Z AUTO 00000KT 40SM 07/M03 A3008 RMK AO1 T00671032






000
SXUS55 KMSO 300423
OSOMSO
MONTANA AWOS SUMMARY
NATIONAL WEATHER SERVICE MISSOULA MT
1023 PM MDT WED OCT 29 2014

Montana AWOS Reports

ROUNDUP     |KRPX 300415Z AUTO 20004KT 40SM 07/M03 A3007 RMK AO1 T00721032
LAUREL      |K6S8 300415Z AUTO 28004KT 40SM 10/M03 A3015 RMK AO1 T01001027






000
SXUS55 KMSO 300413
OSOMSO
MONTANA AWOS SUMMARY
NATIONAL WEATHER SERVICE MISSOULA MT
1013 PM MDT WED OCT 29 2014

Montana AWOS Reports

SCOBEY      |K9S2 300355Z AUTO 31008KT 25SM 02/M02 A3004 RMK AO1 T00171016
PLAINS      |KS34 300355Z AUTO 00000KT 1/4SM 06/04 A3023 RMK AO1 T00610039
TWIN BRIDGES|K7S1 300355Z AUTO 00000KT 40SM 01/M05 A3020 RMK AO1 T00111049






000
SXUS55 KMSO 300413
OSOMSO
MONTANA AWOS SUMMARY
NATIONAL WEATHER SERVICE MISSOULA MT
1013 PM MDT WED OCT 29 2014

Montana AWOS Reports

SCOBEY      |K9S2 300355Z AUTO 31008KT 25SM 02/M02 A3004 RMK AO1 T00171016
PLAINS      |KS34 300355Z AUTO 00000KT 1/4SM 06/04 A3023 RMK AO1 T00610039
TWIN BRIDGES|K7S1 300355Z AUTO 00000KT 40SM 01/M05 A3020 RMK AO1 T00111049






000
SXUS55 KMSO 300403
OSOMSO
MONTANA AWOS SUMMARY
NATIONAL WEATHER SERVICE MISSOULA MT
1003 PM MDT WED OCT 29 2014

Montana AWOS Reports

LAUREL      |K6S8 300355Z AUTO 29006KT 40SM 10/M03 A3015 RMK AO1 T01001032
ROUNDUP     |KRPX 300355Z AUTO 00000KT 40SM 09/M03 A3006 RMK AO1 T00891027
MALTA       |KM75 300355Z AUTO 00000KT 40SM 03/M03 A3007 RMK AO1 T00281027






000
SXUS55 KMSO 300343
OSOMSO
MONTANA AWOS SUMMARY
NATIONAL WEATHER SERVICE MISSOULA MT
943 PM MDT WED OCT 29 2014

Montana AWOS Reports

LAUREL      |K6S8 300335Z AUTO 28005KT 40SM 11/M03 A3014 RMK AO1 T01111027
ROUNDUP     |KRPX 300335Z AUTO 00000KT 40SM 10/M02 A3005 RMK AO1 T01001021






000
SXUS55 KMSO 300323
OSOMSO
MONTANA AWOS SUMMARY
NATIONAL WEATHER SERVICE MISSOULA MT
923 PM MDT WED OCT 29 2014

Montana AWOS Reports

LAUREL      |K6S8 300315Z AUTO 29006KT 40SM 11/M03 A3014 RMK AO1 T01061027
ROUNDUP     |KRPX 300315Z AUTO 00000KT 40SM 11/M02 A3004 RMK AO1 T01061021






000
SXUS55 KMSO 300303
OSOMSO
MONTANA AWOS SUMMARY
NATIONAL WEATHER SERVICE MISSOULA MT
903 PM MDT WED OCT 29 2014

Montana AWOS Reports

LAUREL      |K6S8 300255Z AUTO 28004KT 40SM 10/M03 A3013 RMK AO1 T01001032
ROUNDUP     |KRPX 300255Z AUTO 00000KT 40SM 12/M02 A3004 RMK AO1 T01171021
MALTA       |KM75 300255Z AUTO 00000KT 40SM 06/M01 A3004 RMK AO1 T00561010
PLAINS      |KS34 300255Z AUTO 00000KT 1/4SM 07/04 A3022 RMK AO1 T00670044
SCOBEY      |K9S2 300255Z AUTO 00000KT 40SM 03/M02 A3003 RMK AO1 T00281016
TWIN BRIDGES|K7S1 300255Z AUTO 00000KT 40SM 03/M04 A3019 RMK AO1 T00331043






000
SXUS55 KMSO 300243
OSOMSO
MONTANA AWOS SUMMARY
NATIONAL WEATHER SERVICE MISSOULA MT
843 PM MDT WED OCT 29 2014

Montana AWOS Reports

LAUREL      |K6S8 300235Z AUTO 28004KT 40SM 09/M04 A3013 RMK AO1 T00891038
ROUNDUP     |KRPX 300235Z AUTO 26007KT 40SM 11/M03 A3004 RMK AO1 T01111027






000
SXUS55 KMSO 300223
OSOMSO
MONTANA AWOS SUMMARY
NATIONAL WEATHER SERVICE MISSOULA MT
823 PM MDT WED OCT 29 2014

Montana AWOS Reports

LAUREL      |K6S8 300215Z AUTO 00000KT 40SM 09/M04 A3013 RMK AO1 T00891043
ROUNDUP     |KRPX 300215Z AUTO 00000KT 40SM 11/M03 A3004 RMK AO1 T01111027






000
SXUS55 KMSO 300204
OSOMSO
MONTANA AWOS SUMMARY
NATIONAL WEATHER SERVICE MISSOULA MT
803 PM MDT WED OCT 29 2014

Montana AWOS Reports

LAUREL      |K6S8 300155Z AUTO 00000KT 40SM 09/M04 A3012 RMK AO1 T00941043
ROUNDUP     |KRPX 300155Z AUTO 00000KT 40SM 11/M03 A3003 RMK AO1 T01111027
MALTA       |KM75 300155Z AUTO 00000KT 40SM 08/M01 A3001 RMK AO1 T00781005
PLAINS      |KS34 300155Z AUTO 00000KT 1/4SM 07/04 A3022 RMK AO1 T00670044
TWIN BRIDGES|K7S1 300155Z AUTO 00000KT 40SM 08/M04 A3017 RMK AO1 T00781038






000
SXUS55 KMSO 300143
OSOMSO
MONTANA AWOS SUMMARY
NATIONAL WEATHER SERVICE MISSOULA MT
743 PM MDT WED OCT 29 2014

Montana AWOS Reports

LAUREL      |K6S8 300135Z AUTO 00000KT 40SM 10/M04 A3011 RMK AO1 T01001038
ROUNDUP     |KRPX 300135Z AUTO 22011KT 40SM 11/M03 A3003 RMK AO1 T01061027






000
SXUS55 KMSO 300123
OSOMSO
MONTANA AWOS SUMMARY
NATIONAL WEATHER SERVICE MISSOULA MT
723 PM MDT WED OCT 29 2014

Montana AWOS Reports

LAUREL      |K6S8 300115Z AUTO 00000KT 40SM 10/M05 A3011 RMK AO1 T01001049
ROUNDUP     |KRPX 300115Z AUTO 00000KT 40SM 11/M03 A3002 RMK AO1 T01061027






000
SXUS55 KMSO 300113
OSOMSO
MONTANA AWOS SUMMARY
NATIONAL WEATHER SERVICE MISSOULA MT
712 PM MDT WED OCT 29 2014

Montana AWOS Reports

TWIN BRIDGES|K7S1 300055Z AUTO 02005KT 40SM 09/M04 A3016 RMK AO1 T00891038






000
SXUS55 KMSO 300103
OSOMSO
MONTANA AWOS SUMMARY
NATIONAL WEATHER SERVICE MISSOULA MT
703 PM MDT WED OCT 29 2014

Montana AWOS Reports

LAUREL      |K6S8 300055Z AUTO 00000KT 40SM 11/M04 A3010 RMK AO1 T01111043
ROUNDUP     |KRPX 300055Z AUTO 00000KT 40SM 11/M03 A3001 RMK AO1 T01061027
SCOBEY      |K9S2 300055Z AUTO 00000KT 40SM 04/M02 A2997 RMK AO1 T00441016
MALTA       |KM75 300055Z AUTO 00000KT 40SM 09/00 A2999 RMK AO1 T00890000
PLAINS      |KS34 300055Z AUTO 00000KT 25SM 09/06 A3021 RMK AO1 T00890061






000
SXUS55 KMSO 300043
OSOMSO
MONTANA AWOS SUMMARY
NATIONAL WEATHER SERVICE MISSOULA MT
642 PM MDT WED OCT 29 2014

Montana AWOS Reports

LAUREL      |K6S8 300035Z AUTO 27004KT 40SM 12/M04 A3010 RMK AO1 T01221038
ROUNDUP     |KRPX 300035Z AUTO 30006KT 40SM 12/M03 A3000 RMK AO1 T01171032






000
SXUS55 KMSO 300023
OSOMSO
MONTANA AWOS SUMMARY
NATIONAL WEATHER SERVICE MISSOULA MT
623 PM MDT WED OCT 29 2014

Montana AWOS Reports

ROUNDUP     |KRPX 300015Z AUTO 00000KT 40SM 12/M04 A2999 RMK AO1 T01221038
LAUREL      |K6S8 300015Z AUTO 28004KT 40SM 13/M04 A3009 RMK AO1 T01331038






000
SXUS55 KMSO 300014
OSOMSO
MONTANA AWOS SUMMARY
NATIONAL WEATHER SERVICE MISSOULA MT
613 PM MDT WED OCT 29 2014

Montana AWOS Reports

TWIN BRIDGES|K7S1 292355Z AUTO 00000KT 1 1/4SM 13/M04 A3016 RMK AO1 T01281038






000
SXUS55 KMSO 300004
OSOMSO
MONTANA AWOS SUMMARY
NATIONAL WEATHER SERVICE MISSOULA MT
603 PM MDT WED OCT 29 2014

Montana AWOS Reports

LAUREL      |K6S8 292355Z AUTO 28006KT 40SM 14/M03 A3008 RMK AO1 T01441032
ROUNDUP     |KRPX 292355Z AUTO 30007KT 40SM 14/M03 A2999 RMK AO1 T01391032
SCOBEY      |K9S2 292355Z AUTO 31005KT 40SM 09/M01 A2993 RMK AO1 T00891005






000
SXUS55 KMSO 292344
OSOMSO
MONTANA AWOS SUMMARY
NATIONAL WEATHER SERVICE MISSOULA MT
543 PM MDT WED OCT 29 2014

Montana AWOS Reports

LAUREL      |K6S8 292335Z AUTO 28011G15KT 40SM 15/M04 A3008 RMK AO1 T01501038
ROUNDUP     |KRPX 292335Z AUTO 31008KT 40SM 14/M04 A2998 RMK AO1 T01441043






000
SXUS55 KMSO 292324
OSOMSO
MONTANA AWOS SUMMARY
NATIONAL WEATHER SERVICE MISSOULA MT
523 PM MDT WED OCT 29 2014

Montana AWOS Reports

ROUNDUP     |KRPX 292315Z AUTO 29008KT 40SM 16/M04 A2997 RMK AO1 T01561038
LAUREL      |K6S8 292315Z AUTO 28010G21KT 40SM 16/M04 A3007 RMK AO1 T01611038
PLAINS      |KS34 292255Z AUTO 00000KT 15SM 11/08 A3020 RMK AO1 T01110078






000
SXUS55 KMSO 292303
OSOMSO
MONTANA AWOS SUMMARY
NATIONAL WEATHER SERVICE MISSOULA MT
503 PM MDT WED OCT 29 2014

Montana AWOS Reports

LAUREL      |K6S8 292255Z AUTO 27017G24KT 40SM 17/M04 A3006 RMK AO1 T01671043






000
SXUS55 KMSO 292243
OSOMSO
MONTANA AWOS SUMMARY
NATIONAL WEATHER SERVICE MISSOULA MT
443 PM MDT WED OCT 29 2014

Montana AWOS Reports

LAUREL      |K6S8 292235Z AUTO 27017G25KT 40SM 17/M04 A3005 RMK AO1 T01721043
ROUNDUP     |KRPX 292235Z AUTO 29015G20KT 40SM 16/M04 A2996 RMK AO1 T01611038






000
SXUS55 KMSO 292243
OSOMSO
MONTANA AWOS SUMMARY
NATIONAL WEATHER SERVICE MISSOULA MT
443 PM MDT WED OCT 29 2014

Montana AWOS Reports

LAUREL      |K6S8 292235Z AUTO 27017G25KT 40SM 17/M04 A3005 RMK AO1 T01721043
ROUNDUP     |KRPX 292235Z AUTO 29015G20KT 40SM 16/M04 A2996 RMK AO1 T01611038






000
SXUS55 KMSO 292224
OSOMSO
MONTANA AWOS SUMMARY
NATIONAL WEATHER SERVICE MISSOULA MT
423 PM MDT WED OCT 29 2014

Montana AWOS Reports

LAUREL      |K6S8 292215Z AUTO 26015G23KT 40SM 17/M05 A3005 RMK AO1 T01721049






000
SXUS55 KMSO 292203
OSOMSO
MONTANA AWOS SUMMARY
NATIONAL WEATHER SERVICE MISSOULA MT
403 PM MDT WED OCT 29 2014

Montana AWOS Reports

LAUREL      |K6S8 292155Z AUTO 27016G27KT 40SM 17/M05 A3004 RMK AO1 T01721049
ROUNDUP     |KRPX 292155Z AUTO 29015KT 40SM 16/M03 A2995 RMK AO1 T01611032
SCOBEY      |K9S2 292155Z AUTO 29018G23KT 40SM 14/M01 A2988 RMK AO1 T01391010
PLAINS      |KS34 292155Z AUTO 20004KT 25SM 12/07 A3019 RMK AO1 T01170072
MALTA       |KM75 292155Z AUTO 27010G22KT 40SM 16/01 A2992 RMK AO1 T01610011
TWIN BRIDGES|K7S1 292155Z AUTO 00000KT 1/2SM 14/M05 A3014 RMK AO1 T01391049






000
SXUS55 KMSO 292143
OSOMSO
MONTANA AWOS SUMMARY
NATIONAL WEATHER SERVICE MISSOULA MT
343 PM MDT WED OCT 29 2014

Montana AWOS Reports

LAUREL      |K6S8 292135Z AUTO 26020G28KT 40SM 18/M04 A3004 RMK AO1 T01781043
ROUNDUP     |KRPX 292135Z AUTO 29012G17KT 40SM 16/M03 A2995 RMK AO1 T01561032






000
SXUS55 KMSO 292124
OSOMSO
MONTANA AWOS SUMMARY
NATIONAL WEATHER SERVICE MISSOULA MT
323 PM MDT WED OCT 29 2014

Montana AWOS Reports

LAUREL      |K6S8 292115Z AUTO 26015G28KT 40SM 18/M03 A3003 RMK AO1 T01781032
ROUNDUP     |KRPX 292115Z AUTO 30015G19KT 40SM 16/M03 A2993 RMK AO1 T01611032
MALTA       |KM75 292055Z AUTO 26020G25KT 40SM 17/01 A2990 RMK AO1 T01670006






000
SXUS55 KMSO 292103
OSOMSO
MONTANA AWOS SUMMARY
NATIONAL WEATHER SERVICE MISSOULA MT
302 PM MDT WED OCT 29 2014

Montana AWOS Reports

PLAINS      |KS34 292055Z AUTO 00000KT 25SM 11/08 A3017 RMK AO1 T01060083
TWIN BRIDGES|K7S1 292055Z AUTO 23006KT 2 1/2SM 14/M05 A3014 RMK AO1 T01391049
SCOBEY      |K9S2 292055Z AUTO 27014G19KT 40SM 12/01 A2986 RMK AO1 T01220006






000
SXUS55 KMSO 292043
OSOMSO
MONTANA AWOS SUMMARY
NATIONAL WEATHER SERVICE MISSOULA MT
243 PM MDT WED OCT 29 2014

Montana AWOS Reports

LAUREL      |K6S8 292035Z AUTO 26021G30KT 40SM 18/M04 A3002 RMK AO1 T01781043
ROUNDUP     |KRPX 292035Z AUTO 30010G17KT 40SM 18/M04 A2992 RMK AO1 T01781043






000
SXUS55 KMSO 292024
OSOMSO
MONTANA AWOS SUMMARY
NATIONAL WEATHER SERVICE MISSOULA MT
223 PM MDT WED OCT 29 2014

Montana AWOS Reports

LAUREL      |K6S8 292015Z AUTO 27018G24KT 40SM 17/M03 A3002 RMK AO1 T01721032
ROUNDUP     |KRPX 292015Z AUTO 25014G27KT 40SM 17/M03 A2991 RMK AO1 T01721032






000
SXUS55 KMSO 292013
OSOMSO
MONTANA AWOS SUMMARY
NATIONAL WEATHER SERVICE MISSOULA MT
213 PM MDT WED OCT 29 2014

Montana AWOS Reports

MALTA       |KM75 291955Z AUTO 27016G24KT 40SM 16/01 A2988 RMK AO1 T01560011






000
SXUS55 KMSO 292004
OSOMSO
MONTANA AWOS SUMMARY
NATIONAL WEATHER SERVICE MISSOULA MT
203 PM MDT WED OCT 29 2014

Montana AWOS Reports

LAUREL      |K6S8 291955Z AUTO 27022G28KT 40SM 18/M02 A3002 RMK AO1 T01781021
ROUNDUP     |KRPX 291955Z AUTO 25021G27KT 40SM 17/M03 A2991 RMK AO1 T01721032
PLAINS      |KS34 291955Z AUTO 00000KT 25SM 09/07 A3016 RMK AO1 T00890072
TWIN BRIDGES|K7S1 291955Z AUTO 27008KT 1 3/4SM 14/M05 A3014 RMK AO1 T01391049
SCOBEY      |K9S2 291955Z AUTO 28013KT 40SM 12/00 A2984 RMK AO1 T01170000






000
SXUS55 KMSO 291943
OSOMSO
MONTANA AWOS SUMMARY
NATIONAL WEATHER SERVICE MISSOULA MT
143 PM MDT WED OCT 29 2014

Montana AWOS Reports

LAUREL      |K6S8 291935Z AUTO 25017G28KT 40SM 18/M03 A3002 RMK AO1 T01781032
ROUNDUP     |KRPX 291935Z AUTO 23017G25KT 40SM 17/M03 A2991 RMK AO1 T01721027






000
SXUS55 KMSO 291923
OSOMSO
MONTANA AWOS SUMMARY
NATIONAL WEATHER SERVICE MISSOULA MT
122 PM MDT WED OCT 29 2014

Montana AWOS Reports

LAUREL      |K6S8 291915Z AUTO 26021G27KT 40SM 17/M03 A3003 RMK AO1 T01721032
ROUNDUP     |KRPX 291915Z AUTO 24018G25KT 40SM 17/M04 A2991 RMK AO1 T01671038






000
SXUS55 KMSO 291913
OSOMSO
MONTANA AWOS SUMMARY
NATIONAL WEATHER SERVICE MISSOULA MT
113 PM MDT WED OCT 29 2014

Montana AWOS Reports

TWIN BRIDGES|K7S1 291855Z AUTO 00000KT 25SM 12/M06 A3015 RMK AO1 T01221055
MALTA       |KM75 291855Z AUTO 24017G25KT 40SM 14/03 A2986 RMK AO1 T01440033






000
SXUS55 KMSO 291904
OSOMSO
MONTANA AWOS SUMMARY
NATIONAL WEATHER SERVICE MISSOULA MT
103 PM MDT WED OCT 29 2014

Montana AWOS Reports

LAUREL      |K6S8 291855Z AUTO 25021G27KT 40SM 17/M03 A3003 RMK AO1 T01671032
ROUNDUP     |KRPX 291855Z AUTO 25015G27KT 40SM 17/M03 A2991 RMK AO1 T01671032
SCOBEY      |K9S2 291855Z AUTO 28015KT 40SM 11/01 A2984 RMK AO1 T01060006
PLAINS      |KS34 291855Z AUTO 00000KT 25SM 08/06 A3016 RMK AO1 T00780061






000
SXUS55 KMSO 291843
OSOMSO
MONTANA AWOS SUMMARY
NATIONAL WEATHER SERVICE MISSOULA MT
1243 PM MDT WED OCT 29 2014

Montana AWOS Reports

LAUREL      |K6S8 291835Z AUTO 25018G26KT 40SM 17/M03 A3002 RMK AO1 T01721032
ROUNDUP     |KRPX 291835Z AUTO 25014G22KT 40SM 17/M02 A2992 RMK AO1 T01721021






000
SXUS55 KMSO 291824
OSOMSO
MONTANA AWOS SUMMARY
NATIONAL WEATHER SERVICE MISSOULA MT
1223 PM MDT WED OCT 29 2014

Montana AWOS Reports

LAUREL      |K6S8 291815Z AUTO 00000KT 40SM 17/M03 A3003 RMK AO1 T01671032
ROUNDUP     |KRPX 291815Z AUTO 25015G26KT 40SM 17/M03 A2991 RMK AO1 T01671027






000
SXUS55 KMSO 291813
OSOMSO
MONTANA AWOS SUMMARY
NATIONAL WEATHER SERVICE MISSOULA MT
1213 PM MDT WED OCT 29 2014

Montana AWOS Reports

MALTA       |KM75 291755Z AUTO 25007KT 40SM 11/03 A2988 RMK AO1 T01060033






000
SXUS55 KMSO 291803
OSOMSO
MONTANA AWOS SUMMARY
NATIONAL WEATHER SERVICE MISSOULA MT
1202 PM MDT WED OCT 29 2014

Montana AWOS Reports

LAUREL      |K6S8 291755Z AUTO 24009G13KT 40SM 17/M03 A3002 RMK AO1 T01671032
TWIN BRIDGES|K7S1 291755Z AUTO 15010G15KT 40SM 12/01 A3014 RMK AO1 T01220006
PLAINS      |KS34 291755Z AUTO 00000KT 15SM 07/05 A3014 RMK AO1 T00670050
SCOBEY      |K9S2 291755Z AUTO 23008KT 40SM 08/01 A2984 RMK AO1 T00830006






000
SXUS55 KMSO 291743
OSOMSO
MONTANA AWOS SUMMARY
NATIONAL WEATHER SERVICE MISSOULA MT
1143 AM MDT WED OCT 29 2014

Montana AWOS Reports

LAUREL      |K6S8 291735Z AUTO 22014G21KT 40SM 16/M03 A3002 RMK AO1 T01561032
ROUNDUP     |KRPX 291735Z AUTO 24017G29KT 40SM 16/M01 A2990 RMK AO1 T01561005






000
SXUS55 KMSO 291723
OSOMSO
MONTANA AWOS SUMMARY
NATIONAL WEATHER SERVICE MISSOULA MT
1122 AM MDT WED OCT 29 2014

Montana AWOS Reports

ROUNDUP     |KRPX 291715Z AUTO 25024G33KT 40SM 14/M01 A2990 RMK AO1 T01441010






000
SXUS55 KMSO 291703
OSOMSO
MONTANA AWOS SUMMARY
NATIONAL WEATHER SERVICE MISSOULA MT
1103 AM MDT WED OCT 29 2014

Montana AWOS Reports

LAUREL      |K6S8 291655Z AUTO 21009G15KT 40SM 14/M05 A3002 RMK AO1 T01391049
ROUNDUP     |KRPX 291655Z AUTO 23023G30KT 40SM 14/M01 A2990 RMK AO1 T01441005
SCOBEY      |K9S2 291655Z AUTO 00000KT 40SM 03/M02 A2984 RMK AO1 T00281021
PLAINS      |KS34 291655Z AUTO 00000KT 15SM 06/04 A3013 RMK AO1 T00560039
MALTA       |KM75 291655Z AUTO 21004KT 40SM 06/01 A2988 RMK AO1 T00560006
TWIN BRIDGES|K7S1 291655Z AUTO 14007KT 40SM 09/M01 A3013 RMK AO1 T00941010






000
SXUS55 KMSO 291643
OSOMSO
MONTANA AWOS SUMMARY
NATIONAL WEATHER SERVICE MISSOULA MT
1043 AM MDT WED OCT 29 2014

Montana AWOS Reports

LAUREL      |K6S8 291635Z AUTO 20011G15KT 40SM 12/M07 A3001 RMK AO1 T01221066






000
SXUS55 KMSO 291643
OSOMSO
MONTANA AWOS SUMMARY
NATIONAL WEATHER SERVICE MISSOULA MT
1043 AM MDT WED OCT 29 2014

Montana AWOS Reports

LAUREL      |K6S8 291635Z AUTO 20011G15KT 40SM 12/M07 A3001 RMK AO1 T01221066






000
SXUS55 KMSO 291623
OSOMSO
MONTANA AWOS SUMMARY
NATIONAL WEATHER SERVICE MISSOULA MT
1023 AM MDT WED OCT 29 2014

Montana AWOS Reports

LAUREL      |K6S8 291615Z AUTO 20006KT 40SM 11/M06 A3002 RMK AO1 T01061055
ROUNDUP     |KRPX 291615Z AUTO 23016G20KT 40SM 11/M02 A2991 RMK AO1 T01111016






000
SXUS55 KMSO 291603
OSOMSO
MONTANA AWOS SUMMARY
NATIONAL WEATHER SERVICE MISSOULA MT
1003 AM MDT WED OCT 29 2014

Montana AWOS Reports

LAUREL      |K6S8 291555Z AUTO 00000KT 40SM 11/M04 A3003 RMK AO1 T01061038
ROUNDUP     |KRPX 291555Z AUTO 23016G20KT 40SM 12/M01 A2991 RMK AO1 T01171010
PLAINS      |KS34 291555Z AUTO 00000KT 7SM 05/03 A3011 RMK AO1 T00500033
TWIN BRIDGES|K7S1 291555Z AUTO 12005KT 40SM 07/M02 A3013 RMK AO1 T00671021
SCOBEY      |K9S2 291555Z AUTO 00000KT 40SM M01/M04 A2985 RMK AO1 T10051043
MALTA       |KM75 291555Z AUTO 00000KT 40SM 02/M02 A2988 RMK AO1 T00171016






000
SXUS55 KMSO 291543
OSOMSO
MONTANA AWOS SUMMARY
NATIONAL WEATHER SERVICE MISSOULA MT
943 AM MDT WED OCT 29 2014

Montana AWOS Reports

LAUREL      |K6S8 291535Z AUTO 21004KT 40SM 11/M04 A3002 RMK AO1 T01061043
ROUNDUP     |KRPX 291535Z AUTO 23011G18KT 40SM 12/M01 A2990 RMK AO1 T01171005






000
SXUS55 KMSO 291524
OSOMSO
MONTANA AWOS SUMMARY
NATIONAL WEATHER SERVICE MISSOULA MT
923 AM MDT WED OCT 29 2014

Montana AWOS Reports

LAUREL      |K6S8 291515Z AUTO 00000KT 40SM 09/M04 A3002 RMK AO1 T00941043
ROUNDUP     |KRPX 291515Z AUTO 23013G20KT 40SM 11/00 A2989 RMK AO1 T01110000






000
SXUS55 KMSO 291513
OSOMSO
MONTANA AWOS SUMMARY
NATIONAL WEATHER SERVICE MISSOULA MT
913 AM MDT WED OCT 29 2014

Montana AWOS Reports

MALTA       |KM75 291455Z AUTO 00000KT 40SM M01/M03 A2986 RMK AO1 T10051032






000
SXUS55 KMSO 291504
OSOMSO
MONTANA AWOS SUMMARY
NATIONAL WEATHER SERVICE MISSOULA MT
903 AM MDT WED OCT 29 2014

Montana AWOS Reports

LAUREL      |K6S8 291455Z AUTO 24004KT 40SM 09/M06 A3001 RMK AO1 T00941055
ROUNDUP     |KRPX 291455Z AUTO 22018G23KT 40SM 11/M01 A2989 RMK AO1 T01061005
PLAINS      |KS34 291455Z AUTO 00000KT 3/4SM 04/02 A3008 RMK AO1 T00390022
TWIN BRIDGES|K7S1 291455Z AUTO 11005KT 40SM 04/M04 A3012 RMK AO1 T00441038
SCOBEY      |K9S2 291455Z AUTO 00000KT 25SM M03/M07 A2985 RMK AO1 T10271066






000
SXUS55 KMSO 291443
OSOMSO
MONTANA AWOS SUMMARY
NATIONAL WEATHER SERVICE MISSOULA MT
843 AM MDT WED OCT 29 2014

Montana AWOS Reports

LAUREL      |K6S8 291435Z AUTO 40SM 09/M06 A3001 RMK AO1 T00941060
ROUNDUP     |KRPX 291435Z AUTO 23019G26KT 40SM 11/M01 A2988 RMK AO1 T01061005






000
SXUS55 KMSO 291423
OSOMSO
MONTANA AWOS SUMMARY
NATIONAL WEATHER SERVICE MISSOULA MT
823 AM MDT WED OCT 29 2014

Montana AWOS Reports

MALTA       |KM75 291355Z AUTO 00000KT 40SM M02/M05 A2984 RMK AO1 T10211049






000
SXUS55 KMSO 291403
OSOMSO
MONTANA AWOS SUMMARY
NATIONAL WEATHER SERVICE MISSOULA MT
803 AM MDT WED OCT 29 2014

Montana AWOS Reports

LAUREL      |K6S8 291355Z AUTO 25004KT 40SM 09/M08 A3000 RMK AO1 T00941077
ROUNDUP     |KRPX 291355Z AUTO 22013G18KT 40SM 10/M02 A2988 RMK AO1 T01001016
PLAINS      |KS34 291355Z AUTO 00000KT 1/2SM 03/02 A3007 RMK AO1 T00330017
TWIN BRIDGES|K7S1 291355Z AUTO 00000KT 40SM 05/M04 A3010 RMK AO1 T00501043
SCOBEY      |K9S2 291355Z AUTO 15005KT 25SM M04/M08 A2984 RMK AO1 T10381077






000
SXUS55 KMSO 291344
OSOMSO
MONTANA AWOS SUMMARY
NATIONAL WEATHER SERVICE MISSOULA MT
743 AM MDT WED OCT 29 2014

Montana AWOS Reports

LAUREL      |K6S8 291335Z AUTO 24007KT 40SM 09/M08 A2999 RMK AO1 T00941082
ROUNDUP     |KRPX 291335Z AUTO 22008KT 40SM 10/M02 A2988 RMK AO1 T01001016






000
SXUS55 KMSO 291323
OSOMSO
MONTANA AWOS SUMMARY
NATIONAL WEATHER SERVICE MISSOULA MT
723 AM MDT WED OCT 29 2014

Montana AWOS Reports

LAUREL      |K6S8 291315Z AUTO 23005KT 40SM 09/M09 A2999 RMK AO1 T00941088
ROUNDUP     |KRPX 291315Z AUTO 23015G20KT 40SM 09/M03 A2987 RMK AO1 T00941032






000
SXUS55 KMSO 291313
OSOMSO
MONTANA AWOS SUMMARY
NATIONAL WEATHER SERVICE MISSOULA MT
713 AM MDT WED OCT 29 2014

Montana AWOS Reports

MALTA       |KM75 291255Z AUTO 00000KT 40SM M02/M05 A2983 RMK AO1 T10211049






000
SXUS55 KMSO 291303
OSOMSO
MONTANA AWOS SUMMARY
NATIONAL WEATHER SERVICE MISSOULA MT
703 AM MDT WED OCT 29 2014

Montana AWOS Reports

LAUREL      |K6S8 291255Z AUTO 24004KT 40SM 09/M09 A2999 RMK AO1 T00941088
ROUNDUP     |KRPX 291255Z AUTO 22008KT 40SM 09/M06 A2988 RMK AO1 T00891060
SCOBEY      |K9S2 291255Z AUTO 00000KT 25SM M04/M08 A2986 RMK AO1 T10431082
PLAINS      |KS34 291255Z AUTO 00000KT 3/4SM 04/02 A3006 RMK AO1 T00390017
TWIN BRIDGES|K7S1 291255Z AUTO 14004KT 40SM 04/M04 A3009 RMK AO1 T00441038






000
SXUS55 KMSO 291243
OSOMSO
MONTANA AWOS SUMMARY
NATIONAL WEATHER SERVICE MISSOULA MT
643 AM MDT WED OCT 29 2014

Montana AWOS Reports

LAUREL      |K6S8 291235Z AUTO 00000KT 40SM 09/M09 A2999 RMK AO1 T00941088
ROUNDUP     |KRPX 291235Z AUTO 19007KT 40SM 09/M07 A2987 RMK AO1 T00891071






000
SXUS55 KMSO 291223
OSOMSO
MONTANA AWOS SUMMARY
NATIONAL WEATHER SERVICE MISSOULA MT
623 AM MDT WED OCT 29 2014

Montana AWOS Reports

LAUREL      |K6S8 291215Z AUTO 25007KT 40SM 09/M09 A3000 RMK AO1 T00941088
ROUNDUP     |KRPX 291215Z AUTO 20010G16KT 40SM 09/M08 A2988 RMK AO1 T00891077






000
SXUS55 KMSO 291213
OSOMSO
MONTANA AWOS SUMMARY
NATIONAL WEATHER SERVICE MISSOULA MT
613 AM MDT WED OCT 29 2014

Montana AWOS Reports

MALTA       |KM75 291155Z AUTO 00000KT 40SM M02/M05 A2984 RMK AO1 T10211049






000
SXUS55 KMSO 291203
OSOMSO
MONTANA AWOS SUMMARY
NATIONAL WEATHER SERVICE MISSOULA MT
603 AM MDT WED OCT 29 2014

Montana AWOS Reports

LAUREL      |K6S8 291155Z AUTO 24013G17KT 40SM 09/M10 A2999 RMK AO1 T00941099
ROUNDUP     |KRPX 291155Z AUTO 20008KT 40SM 08/M08 A2987 RMK AO1 T00831077
SCOBEY      |K9S2 291155Z AUTO 15005KT 25SM M05/M09 A2987 RMK AO1 T10491093
PLAINS      |KS34 291155Z AUTO 00000KT 2 1/2SM 04/02 A3005 RMK AO1 T00440022
TWIN BRIDGES|K7S1 291155Z AUTO 00000KT 40SM 05/M03 A3009 RMK AO1 T00501027






000
SXUS55 KMSO 291144
OSOMSO
MONTANA AWOS SUMMARY
NATIONAL WEATHER SERVICE MISSOULA MT
543 AM MDT WED OCT 29 2014

Montana AWOS Reports

LAUREL      |K6S8 291135Z AUTO 23012G18KT 40SM 09/M10 A2998 RMK AO1 T00941099
ROUNDUP     |KRPX 291135Z AUTO 19007KT 40SM 08/M08 A2987 RMK AO1 T00831077






000
SXUS55 KMSO 291123
OSOMSO
MONTANA AWOS SUMMARY
NATIONAL WEATHER SERVICE MISSOULA MT
522 AM MDT WED OCT 29 2014

Montana AWOS Reports

MALTA       |KM75 291055Z AUTO 00000KT 40SM M02/M06 A2984 RMK AO1 T10211055
LAUREL      |K6S8 291115Z AUTO 23011G17KT 40SM 09/M10 A2997 RMK AO1 T00941099
ROUNDUP     |KRPX 291115Z AUTO 19005KT 40SM 08/M08 A2987 RMK AO1 T00781077






000
SXUS55 KMSO 291113
OSOMSO
MONTANA AWOS SUMMARY
NATIONAL WEATHER SERVICE MISSOULA MT
513 AM MDT WED OCT 29 2014

Montana AWOS Reports

PLAINS      |KS34 291055Z AUTO 00000KT 7SM 05/03 A3005 RMK AO1 T00500028






000
SXUS55 KMSO 291104
OSOMSO
MONTANA AWOS SUMMARY
NATIONAL WEATHER SERVICE MISSOULA MT
503 AM MDT WED OCT 29 2014

Montana AWOS Reports

LAUREL      |K6S8 291055Z AUTO 22013G21KT 40SM 10/M10 A2996 RMK AO1 T01001099
ROUNDUP     |KRPX 291055Z AUTO 19007KT 40SM 07/M08 A2987 RMK AO1 T00671077
SCOBEY      |K9S2 291055Z AUTO 00000KT 40SM M03/M07 A2987 RMK AO1 T10271071
TWIN BRIDGES|K7S1 291055Z AUTO 11008KT 40SM 05/M01 A3008 RMK AO1 T00501010






000
SXUS55 KMSO 291043
OSOMSO
MONTANA AWOS SUMMARY
NATIONAL WEATHER SERVICE MISSOULA MT
443 AM MDT WED OCT 29 2014

Montana AWOS Reports

LAUREL      |K6S8 291035Z AUTO 23012G16KT 40SM 10/M09 A2995 RMK AO1 T01001093
ROUNDUP     |KRPX 291035Z AUTO 18005KT 40SM 07/M08 A2986 RMK AO1 T00721077






000
SXUS55 KMSO 291043
OSOMSO
MONTANA AWOS SUMMARY
NATIONAL WEATHER SERVICE MISSOULA MT
443 AM MDT WED OCT 29 2014

Montana AWOS Reports

LAUREL      |K6S8 291035Z AUTO 23012G16KT 40SM 10/M09 A2995 RMK AO1 T01001093
ROUNDUP     |KRPX 291035Z AUTO 18005KT 40SM 07/M08 A2986 RMK AO1 T00721077






000
SXUS55 KMSO 291023
OSOMSO
MONTANA AWOS SUMMARY
NATIONAL WEATHER SERVICE MISSOULA MT
423 AM MDT WED OCT 29 2014

Montana AWOS Reports

LAUREL      |K6S8 291015Z AUTO 22014G19KT 40SM 11/M09 A2996 RMK AO1 T01061093
ROUNDUP     |KRPX 291015Z AUTO 20008KT 40SM 08/M08 A2987 RMK AO1 T00781077






000
SXUS55 KMSO 291023
OSOMSO
MONTANA AWOS SUMMARY
NATIONAL WEATHER SERVICE MISSOULA MT
423 AM MDT WED OCT 29 2014

Montana AWOS Reports

LAUREL      |K6S8 291015Z AUTO 22014G19KT 40SM 11/M09 A2996 RMK AO1 T01061093
ROUNDUP     |KRPX 291015Z AUTO 20008KT 40SM 08/M08 A2987 RMK AO1 T00781077






000
SXUS55 KMSO 291013
OSOMSO
MONTANA AWOS SUMMARY
NATIONAL WEATHER SERVICE MISSOULA MT
413 AM MDT WED OCT 29 2014

Montana AWOS Reports

TWIN BRIDGES|K7S1 290955Z AUTO 10006KT 40SM 07/M02 A3009 RMK AO1 T00671016
PLAINS      |KS34 290955Z AUTO 00000KT 7SM 05/03 A3006 RMK AO1 T00500028
SCOBEY      |K9S2 290955Z AUTO 14009G15KT 40SM M02/M06 A2989 RMK AO1 T10161055






000
SXUS55 KMSO 291003
OSOMSO
MONTANA AWOS SUMMARY
NATIONAL WEATHER SERVICE MISSOULA MT
403 AM MDT WED OCT 29 2014

Montana AWOS Reports

LAUREL      |K6S8 290955Z AUTO 20013G20KT 40SM 11/M09 A2996 RMK AO1 T01061093
ROUNDUP     |KRPX 290955Z AUTO 19012G17KT 40SM 08/M08 A2987 RMK AO1 T00781077






000
SXUS55 KMSO 290953
OSOMSO
MONTANA AWOS SUMMARY
NATIONAL WEATHER SERVICE MISSOULA MT
353 AM MDT WED OCT 29 2014

Montana AWOS Reports

MALTA       |KM75 290855Z AUTO 00000KT 40SM 01/M05 A2986 RMK AO1 T00061049






000
SXUS55 KMSO 290943
OSOMSO
MONTANA AWOS SUMMARY
NATIONAL WEATHER SERVICE MISSOULA MT
343 AM MDT WED OCT 29 2014

Montana AWOS Reports

LAUREL      |K6S8 290935Z AUTO 21015G25KT 40SM 11/M09 A2996 RMK AO1 T01061093
ROUNDUP     |KRPX 290935Z AUTO 19009G13KT 40SM 07/M08 A2988 RMK AO1 T00721077






000
SXUS55 KMSO 290923
OSOMSO
MONTANA AWOS SUMMARY
NATIONAL WEATHER SERVICE MISSOULA MT
322 AM MDT WED OCT 29 2014

Montana AWOS Reports

LAUREL      |K6S8 290915Z AUTO 22013G22KT 40SM 11/M09 A2996 RMK AO1 T01061093
ROUNDUP     |KRPX 290915Z AUTO 19008KT 40SM 06/M07 A2988 RMK AO1 T00561071






000
SXUS55 KMSO 290913
OSOMSO
MONTANA AWOS SUMMARY
NATIONAL WEATHER SERVICE MISSOULA MT
313 AM MDT WED OCT 29 2014

Montana AWOS Reports

SCOBEY      |K9S2 290855Z AUTO 15005KT 25SM M04/M08 A2993 RMK AO1 T10381077
PLAINS      |KS34 290855Z AUTO 00000KT 7SM 05/03 A3005 RMK AO1 T00500028






    US Dept of Commerce
    National Oceanic and Atmospheric Administration
    National Weather Service
    1325 East West Highway
    Silver Spring, MD 20910
    Page Author: NWS Internet Services Team
Disclaimer
Information Quality
Credits
Glossary
Privacy Policy
Freedom of Information Act (FOIA)
About Us
Career Opportunities